<?xml version="1.0" encoding="UTF-8" standalone="no" ?>
<gpx xmlns="http://www.topografix.com/GPX/1/1" xmlns:xsi="http://www.w3.org/2001/XMLSchema-instance" xsi:schemaLocation="http://www.topografix.com/GPX/1/1 http://www.topografix.com/GPX/1/1/gpx.xsd" version="1.1" creator="VisuGPX - https://www.visugpx.com">
  <metadata>
    <name>06-Andon - Les Crêtes 11,5</name>
    <desc><![CDATA[06-Andon - Les Crêtes]]></desc>
  </metadata>
  <wpt lat="43.77393" lon="6.78702">
    <ele>1218.3</ele>
    <name><![CDATA[0000178]]></name>
    <desc><![CDATA[]]></desc>
    <type><![CDATA[Point de départ]]></type>
  </wpt>
  <wpt lat="43.78088" lon="6.8">
    <ele>1451.76</ele>
    <name><![CDATA[0000179]]></name>
    <desc><![CDATA[<br /><h3>Nom: Segment 1</h3><br /><p>Temps de départ: 05/26/2013 09:34</p><p>Temps d'arrivée: 05/26/2013 12:53</p><p>Distance: 7,1 km (03:19)</p><p>Temps déplacement: 02:02</p><p>Vitesse moyenne: 2,1 km/h</p><p>Vitesse moyenne: 3,5 km/h</p><p>Vitess Max.: 6,3 km/h</p><p>Altitude minimale: 1072 m</p><p>Altitude maximale: 1456 m</p><p>Vitesse d'élévation: 230,5 m/h</p><p>Vitesse de descente: -229 m/h</p><p>Gain Altitude: 389 m</p><p>Perte Altitude: -168 m</p><p>Temps d'élévation: 01:41</p><p>Temps de descente: 00:44</p>]]></desc>
    <type><![CDATA[Point d'arrivée]]></type>
  </wpt>
  <wpt lat="43.77394" lon="6.78723">
    <ele>1184.65</ele>
    <name><![CDATA[0000180]]></name>
    <desc><![CDATA[<br /><h3>Nom: Segment 1</h3><br /><p>Temps de départ: 05/26/2013 09:34</p><p>Temps d'arrivée: 05/26/2013 15:34</p><p>Distance: 10,9 km (06:00)</p><p>Temps déplacement: 03:40</p><p>Vitesse moyenne: 1,8 km/h</p><p>Vitesse moyenne: 3 km/h</p><p>Vitess Max.: 6,3 km/h</p><p>Altitude minimale: 1072 m</p><p>Altitude maximale: 1539 m</p><p>Vitesse d'élévation: 201,8 m/h</p><p>Vitesse de descente: -267,4 m/h</p><p>Gain Altitude: 469 m</p><p>Perte Altitude: -486 m</p><p>Temps d'élévation: 02:19</p><p>Temps de descente: 01:49</p>]]></desc>
    <type><![CDATA[Point d'arrivée]]></type>
  </wpt>
  <trk>
    <name><![CDATA[piscines]]></name>
    <desc><![CDATA[<h1>OruxMaps</h1><br /><hr align="center" width="480" style="height: 2px; width: 517px"/><h2>Nom: piscines</h2><br /><p>Temps de départ: 05/26/2013 09:34</p><p>Temps d'arrivée: 05/26/2013 15:34</p><p>Distance: 10,9 km (06:00)</p><p>Temps déplacement: 03:40</p><p>Vitesse moyenne: 1,8 km/h</p><p>Vitesse moyenne: 3 km/h</p><p>Vitess Max.: 6,3 km/h</p><p>Altitude minimale: 1072 m</p><p>Altitude maximale: 1539 m</p><p>Vitesse d'élévation: 201,8 m/h</p><p>Vitesse de descente: -267,4 m/h</p><p>Gain Altitude: 469 m</p><p>Perte Altitude: -486 m</p><p>Temps d'élévation: 02:19</p><p>Temps de descente: 01:49</p><hr align="center" width="480" style="height: 2px; width: 517px"/>]]></desc>
    <trkseg>
      <trkpt lat="43.77393" lon="6.78702">
        <ele>1218.3</ele>
        <time>2013-05-26T07:34:15Z</time>
      </trkpt>
      <trkpt lat="43.77389" lon="6.78713">
        <ele>1217.51</ele>
        <time>2013-05-26T07:34:54Z</time>
      </trkpt>
      <trkpt lat="43.77387" lon="6.78726">
        <ele>1211.49</ele>
        <time>2013-05-26T07:35:26Z</time>
      </trkpt>
      <trkpt lat="43.77377" lon="6.78732">
        <ele>1208.91</ele>
        <time>2013-05-26T07:35:35Z</time>
      </trkpt>
      <trkpt lat="43.77374" lon="6.78745">
        <ele>1198.9</ele>
        <time>2013-05-26T07:36:50Z</time>
      </trkpt>
      <trkpt lat="43.77363" lon="6.78751">
        <ele>1196.73</ele>
        <time>2013-05-26T07:37:08Z</time>
      </trkpt>
      <trkpt lat="43.77357" lon="6.78764">
        <ele>1194.71</ele>
        <time>2013-05-26T07:37:23Z</time>
      </trkpt>
      <trkpt lat="43.77362" lon="6.78775">
        <ele>1193.53</ele>
        <time>2013-05-26T07:37:35Z</time>
      </trkpt>
      <trkpt lat="43.77358" lon="6.78791">
        <ele>1192.68</ele>
        <time>2013-05-26T07:37:44Z</time>
      </trkpt>
      <trkpt lat="43.77353" lon="6.78802">
        <ele>1192.15</ele>
        <time>2013-05-26T07:37:50Z</time>
      </trkpt>
      <trkpt lat="43.77347" lon="6.78813">
        <ele>1191.07</ele>
        <time>2013-05-26T07:37:59Z</time>
      </trkpt>
      <trkpt lat="43.77343" lon="6.78827">
        <ele>1189.67</ele>
        <time>2013-05-26T07:38:08Z</time>
      </trkpt>
      <trkpt lat="43.77342" lon="6.78841">
        <ele>1188.22</ele>
        <time>2013-05-26T07:38:20Z</time>
      </trkpt>
      <trkpt lat="43.77346" lon="6.78854">
        <ele>1188.37</ele>
        <time>2013-05-26T07:38:32Z</time>
      </trkpt>
      <trkpt lat="43.77346" lon="6.7887">
        <ele>1188.17</ele>
        <time>2013-05-26T07:38:44Z</time>
      </trkpt>
      <trkpt lat="43.77344" lon="6.78887">
        <ele>1187.53</ele>
        <time>2013-05-26T07:38:56Z</time>
      </trkpt>
      <trkpt lat="43.77343" lon="6.78904">
        <ele>1186.65</ele>
        <time>2013-05-26T07:39:08Z</time>
      </trkpt>
      <trkpt lat="43.77343" lon="6.78919">
        <ele>1185.8</ele>
        <time>2013-05-26T07:39:17Z</time>
      </trkpt>
      <trkpt lat="43.77344" lon="6.78935">
        <ele>1184.91</ele>
        <time>2013-05-26T07:39:26Z</time>
      </trkpt>
      <trkpt lat="43.77344" lon="6.78952">
        <ele>1183.84</ele>
        <time>2013-05-26T07:39:38Z</time>
      </trkpt>
      <trkpt lat="43.77345" lon="6.78967">
        <ele>1182.92</ele>
        <time>2013-05-26T07:39:47Z</time>
      </trkpt>
      <trkpt lat="43.77348" lon="6.78983">
        <ele>1182.13</ele>
        <time>2013-05-26T07:39:56Z</time>
      </trkpt>
      <trkpt lat="43.77348" lon="6.78998">
        <ele>1181.15</ele>
        <time>2013-05-26T07:40:05Z</time>
      </trkpt>
      <trkpt lat="43.77345" lon="6.79013">
        <ele>1180.04</ele>
        <time>2013-05-26T07:40:14Z</time>
      </trkpt>
      <trkpt lat="43.77342" lon="6.7903">
        <ele>1179.07</ele>
        <time>2013-05-26T07:40:23Z</time>
      </trkpt>
      <trkpt lat="43.77338" lon="6.79042">
        <ele>1178.45</ele>
        <time>2013-05-26T07:40:29Z</time>
      </trkpt>
      <trkpt lat="43.77333" lon="6.79054">
        <ele>1177.23</ele>
        <time>2013-05-26T07:40:38Z</time>
      </trkpt>
      <trkpt lat="43.77329" lon="6.79069">
        <ele>1176.16</ele>
        <time>2013-05-26T07:40:47Z</time>
      </trkpt>
      <trkpt lat="43.77325" lon="6.79084">
        <ele>1175.21</ele>
        <time>2013-05-26T07:40:59Z</time>
      </trkpt>
      <trkpt lat="43.7732" lon="6.79099">
        <ele>1174.56</ele>
        <time>2013-05-26T07:41:08Z</time>
      </trkpt>
      <trkpt lat="43.77317" lon="6.79111">
        <ele>1174.18</ele>
        <time>2013-05-26T07:41:17Z</time>
      </trkpt>
      <trkpt lat="43.77312" lon="6.79128">
        <ele>1173.92</ele>
        <time>2013-05-26T07:41:26Z</time>
      </trkpt>
      <trkpt lat="43.77313" lon="6.79145">
        <ele>1173.63</ele>
        <time>2013-05-26T07:41:35Z</time>
      </trkpt>
      <trkpt lat="43.77314" lon="6.7916">
        <ele>1173.13</ele>
        <time>2013-05-26T07:41:44Z</time>
      </trkpt>
      <trkpt lat="43.77312" lon="6.79175">
        <ele>1172.56</ele>
        <time>2013-05-26T07:41:53Z</time>
      </trkpt>
      <trkpt lat="43.7731" lon="6.79189">
        <ele>1171.83</ele>
        <time>2013-05-26T07:42:02Z</time>
      </trkpt>
      <trkpt lat="43.77311" lon="6.79203">
        <ele>1171.17</ele>
        <time>2013-05-26T07:42:11Z</time>
      </trkpt>
      <trkpt lat="43.77314" lon="6.79218">
        <ele>1170.71</ele>
        <time>2013-05-26T07:42:20Z</time>
      </trkpt>
      <trkpt lat="43.77319" lon="6.7923">
        <ele>1169.98</ele>
        <time>2013-05-26T07:42:29Z</time>
      </trkpt>
      <trkpt lat="43.77327" lon="6.79237">
        <ele>1168</ele>
        <time>2013-05-26T07:42:41Z</time>
      </trkpt>
      <trkpt lat="43.77329" lon="6.7925">
        <ele>1164.77</ele>
        <time>2013-05-26T07:43:02Z</time>
      </trkpt>
      <trkpt lat="43.77331" lon="6.79263">
        <ele>1163.02</ele>
        <time>2013-05-26T07:43:23Z</time>
      </trkpt>
      <trkpt lat="43.77325" lon="6.79278">
        <ele>1161.91</ele>
        <time>2013-05-26T07:43:35Z</time>
      </trkpt>
      <trkpt lat="43.7732" lon="6.79289">
        <ele>1160.87</ele>
        <time>2013-05-26T07:43:47Z</time>
      </trkpt>
      <trkpt lat="43.77309" lon="6.79302">
        <ele>1160.5</ele>
        <time>2013-05-26T07:43:56Z</time>
      </trkpt>
      <trkpt lat="43.77301" lon="6.79311">
        <ele>1160.33</ele>
        <time>2013-05-26T07:44:05Z</time>
      </trkpt>
      <trkpt lat="43.77297" lon="6.79323">
        <ele>1159.26</ele>
        <time>2013-05-26T07:44:20Z</time>
      </trkpt>
      <trkpt lat="43.7729" lon="6.79332">
        <ele>1159.15</ele>
        <time>2013-05-26T07:44:26Z</time>
      </trkpt>
      <trkpt lat="43.77282" lon="6.79343">
        <ele>1159.21</ele>
        <time>2013-05-26T07:44:35Z</time>
      </trkpt>
      <trkpt lat="43.77273" lon="6.79354">
        <ele>1159.03</ele>
        <time>2013-05-26T07:44:47Z</time>
      </trkpt>
      <trkpt lat="43.77266" lon="6.79367">
        <ele>1159.01</ele>
        <time>2013-05-26T07:44:56Z</time>
      </trkpt>
      <trkpt lat="43.7726" lon="6.79379">
        <ele>1159.16</ele>
        <time>2013-05-26T07:45:05Z</time>
      </trkpt>
      <trkpt lat="43.77251" lon="6.79389">
        <ele>1159.28</ele>
        <time>2013-05-26T07:45:17Z</time>
      </trkpt>
      <trkpt lat="43.77241" lon="6.79396">
        <ele>1159.64</ele>
        <time>2013-05-26T07:45:29Z</time>
      </trkpt>
      <trkpt lat="43.77231" lon="6.79402">
        <ele>1159.52</ele>
        <time>2013-05-26T07:45:38Z</time>
      </trkpt>
      <trkpt lat="43.77222" lon="6.79411">
        <ele>1159.48</ele>
        <time>2013-05-26T07:45:47Z</time>
      </trkpt>
      <trkpt lat="43.77216" lon="6.79426">
        <ele>1159.51</ele>
        <time>2013-05-26T07:45:56Z</time>
      </trkpt>
      <trkpt lat="43.77211" lon="6.79436">
        <ele>1159.32</ele>
        <time>2013-05-26T07:46:08Z</time>
      </trkpt>
      <trkpt lat="43.772" lon="6.79439">
        <ele>1157.62</ele>
        <time>2013-05-26T07:46:24Z</time>
      </trkpt>
      <trkpt lat="43.77191" lon="6.79445">
        <ele>1155.87</ele>
        <time>2013-05-26T07:46:36Z</time>
      </trkpt>
      <trkpt lat="43.77183" lon="6.79459">
        <ele>1154.85</ele>
        <time>2013-05-26T07:46:45Z</time>
      </trkpt>
      <trkpt lat="43.77177" lon="6.79469">
        <ele>1154</ele>
        <time>2013-05-26T07:46:54Z</time>
      </trkpt>
      <trkpt lat="43.77171" lon="6.7948">
        <ele>1153.59</ele>
        <time>2013-05-26T07:47:09Z</time>
      </trkpt>
      <trkpt lat="43.77164" lon="6.79492">
        <ele>1153.47</ele>
        <time>2013-05-26T07:47:18Z</time>
      </trkpt>
      <trkpt lat="43.77156" lon="6.79497">
        <ele>1153.37</ele>
        <time>2013-05-26T07:47:27Z</time>
      </trkpt>
      <trkpt lat="43.77142" lon="6.79496">
        <ele>1153.26</ele>
        <time>2013-05-26T07:47:33Z</time>
      </trkpt>
      <trkpt lat="43.77133" lon="6.79507">
        <ele>1152.67</ele>
        <time>2013-05-26T07:47:45Z</time>
      </trkpt>
      <trkpt lat="43.77131" lon="6.79524">
        <ele>1152.03</ele>
        <time>2013-05-26T07:48:00Z</time>
      </trkpt>
      <trkpt lat="43.77126" lon="6.79537">
        <ele>1152.55</ele>
        <time>2013-05-26T07:48:21Z</time>
      </trkpt>
      <trkpt lat="43.77125" lon="6.79551">
        <ele>1153.17</ele>
        <time>2013-05-26T07:48:36Z</time>
      </trkpt>
      <trkpt lat="43.77123" lon="6.7957">
        <ele>1153.63</ele>
        <time>2013-05-26T07:48:48Z</time>
      </trkpt>
      <trkpt lat="43.77118" lon="6.79585">
        <ele>1153.8</ele>
        <time>2013-05-26T07:48:54Z</time>
      </trkpt>
      <trkpt lat="43.77114" lon="6.79603">
        <ele>1153.81</ele>
        <time>2013-05-26T07:48:57Z</time>
      </trkpt>
      <trkpt lat="43.7711" lon="6.79616">
        <ele>1153.79</ele>
        <time>2013-05-26T07:49:00Z</time>
      </trkpt>
      <trkpt lat="43.77106" lon="6.79632">
        <ele>1154.09</ele>
        <time>2013-05-26T07:49:09Z</time>
      </trkpt>
      <trkpt lat="43.77105" lon="6.79645">
        <ele>1154.23</ele>
        <time>2013-05-26T07:49:15Z</time>
      </trkpt>
      <trkpt lat="43.77104" lon="6.79661">
        <ele>1154.34</ele>
        <time>2013-05-26T07:49:24Z</time>
      </trkpt>
      <trkpt lat="43.77102" lon="6.79678">
        <ele>1154.32</ele>
        <time>2013-05-26T07:49:33Z</time>
      </trkpt>
      <trkpt lat="43.77104" lon="6.79691">
        <ele>1154.08</ele>
        <time>2013-05-26T07:49:42Z</time>
      </trkpt>
      <trkpt lat="43.77105" lon="6.79706">
        <ele>1153.84</ele>
        <time>2013-05-26T07:49:51Z</time>
      </trkpt>
      <trkpt lat="43.77104" lon="6.79722">
        <ele>1154.09</ele>
        <time>2013-05-26T07:50:06Z</time>
      </trkpt>
      <trkpt lat="43.77104" lon="6.79736">
        <ele>1154.54</ele>
        <time>2013-05-26T07:50:12Z</time>
      </trkpt>
      <trkpt lat="43.77106" lon="6.79748">
        <ele>1155.1</ele>
        <time>2013-05-26T07:50:24Z</time>
      </trkpt>
      <trkpt lat="43.77106" lon="6.79761">
        <ele>1154.67</ele>
        <time>2013-05-26T07:50:36Z</time>
      </trkpt>
      <trkpt lat="43.77105" lon="6.79776">
        <ele>1154.47</ele>
        <time>2013-05-26T07:50:45Z</time>
      </trkpt>
      <trkpt lat="43.77109" lon="6.79789">
        <ele>1154.3</ele>
        <time>2013-05-26T07:50:54Z</time>
      </trkpt>
      <trkpt lat="43.77108" lon="6.79804">
        <ele>1154.13</ele>
        <time>2013-05-26T07:51:03Z</time>
      </trkpt>
      <trkpt lat="43.77111" lon="6.79817">
        <ele>1154.29</ele>
        <time>2013-05-26T07:51:12Z</time>
      </trkpt>
      <trkpt lat="43.77113" lon="6.79834">
        <ele>1154.67</ele>
        <time>2013-05-26T07:51:21Z</time>
      </trkpt>
      <trkpt lat="43.77121" lon="6.79843">
        <ele>1155.19</ele>
        <time>2013-05-26T07:51:30Z</time>
      </trkpt>
      <trkpt lat="43.77126" lon="6.79855">
        <ele>1155.54</ele>
        <time>2013-05-26T07:51:39Z</time>
      </trkpt>
      <trkpt lat="43.7713" lon="6.79867">
        <ele>1155.78</ele>
        <time>2013-05-26T07:51:51Z</time>
      </trkpt>
      <trkpt lat="43.77125" lon="6.79882">
        <ele>1155.54</ele>
        <time>2013-05-26T07:52:03Z</time>
      </trkpt>
      <trkpt lat="43.77127" lon="6.79896">
        <ele>1155.03</ele>
        <time>2013-05-26T07:52:15Z</time>
      </trkpt>
      <trkpt lat="43.77135" lon="6.79907">
        <ele>1154.85</ele>
        <time>2013-05-26T07:52:27Z</time>
      </trkpt>
      <trkpt lat="43.77142" lon="6.79919">
        <ele>1154.37</ele>
        <time>2013-05-26T07:52:36Z</time>
      </trkpt>
      <trkpt lat="43.77153" lon="6.79922">
        <ele>1154.29</ele>
        <time>2013-05-26T07:52:48Z</time>
      </trkpt>
      <trkpt lat="43.77162" lon="6.7992">
        <ele>1154.44</ele>
        <time>2013-05-26T07:52:57Z</time>
      </trkpt>
      <trkpt lat="43.77172" lon="6.79917">
        <ele>1154.09</ele>
        <time>2013-05-26T07:53:09Z</time>
      </trkpt>
      <trkpt lat="43.77186" lon="6.79912">
        <ele>1153.33</ele>
        <time>2013-05-26T07:53:21Z</time>
      </trkpt>
      <trkpt lat="43.77192" lon="6.79903">
        <ele>1152.59</ele>
        <time>2013-05-26T07:53:30Z</time>
      </trkpt>
      <trkpt lat="43.77202" lon="6.79892">
        <ele>1151.85</ele>
        <time>2013-05-26T07:53:39Z</time>
      </trkpt>
      <trkpt lat="43.77214" lon="6.79899">
        <ele>1150.98</ele>
        <time>2013-05-26T07:53:51Z</time>
      </trkpt>
      <trkpt lat="43.77224" lon="6.79909">
        <ele>1150.12</ele>
        <time>2013-05-26T07:54:00Z</time>
      </trkpt>
      <trkpt lat="43.77229" lon="6.7992">
        <ele>1149.46</ele>
        <time>2013-05-26T07:54:06Z</time>
      </trkpt>
      <trkpt lat="43.77227" lon="6.79932">
        <ele>1146.41</ele>
        <time>2013-05-26T07:54:30Z</time>
      </trkpt>
      <trkpt lat="43.77224" lon="6.79947">
        <ele>1144.58</ele>
        <time>2013-05-26T07:54:42Z</time>
      </trkpt>
      <trkpt lat="43.77219" lon="6.7996">
        <ele>1142.65</ele>
        <time>2013-05-26T07:54:58Z</time>
      </trkpt>
      <trkpt lat="43.77222" lon="6.79973">
        <ele>1140.7</ele>
        <time>2013-05-26T07:55:10Z</time>
      </trkpt>
      <trkpt lat="43.77223" lon="6.79986">
        <ele>1139</ele>
        <time>2013-05-26T07:55:19Z</time>
      </trkpt>
      <trkpt lat="43.77224" lon="6.80005">
        <ele>1137.3</ele>
        <time>2013-05-26T07:55:28Z</time>
      </trkpt>
      <trkpt lat="43.77224" lon="6.80023">
        <ele>1135.62</ele>
        <time>2013-05-26T07:55:37Z</time>
      </trkpt>
      <trkpt lat="43.77224" lon="6.80038">
        <ele>1134.14</ele>
        <time>2013-05-26T07:55:46Z</time>
      </trkpt>
      <trkpt lat="43.77224" lon="6.80055">
        <ele>1133.21</ele>
        <time>2013-05-26T07:55:55Z</time>
      </trkpt>
      <trkpt lat="43.77224" lon="6.80069">
        <ele>1132.16</ele>
        <time>2013-05-26T07:56:07Z</time>
      </trkpt>
      <trkpt lat="43.77224" lon="6.80084">
        <ele>1131.19</ele>
        <time>2013-05-26T07:56:19Z</time>
      </trkpt>
      <trkpt lat="43.77222" lon="6.80098">
        <ele>1130.36</ele>
        <time>2013-05-26T07:56:31Z</time>
      </trkpt>
      <trkpt lat="43.77226" lon="6.80113">
        <ele>1129.77</ele>
        <time>2013-05-26T07:56:40Z</time>
      </trkpt>
      <trkpt lat="43.77232" lon="6.80124">
        <ele>1129.25</ele>
        <time>2013-05-26T07:56:49Z</time>
      </trkpt>
      <trkpt lat="43.77227" lon="6.80134">
        <ele>1128.44</ele>
        <time>2013-05-26T07:57:25Z</time>
      </trkpt>
      <trkpt lat="43.77218" lon="6.80134">
        <ele>1127.32</ele>
        <time>2013-05-26T07:57:37Z</time>
      </trkpt>
      <trkpt lat="43.77207" lon="6.8013">
        <ele>1126.29</ele>
        <time>2013-05-26T07:57:46Z</time>
      </trkpt>
      <trkpt lat="43.77199" lon="6.80137">
        <ele>1126.02</ele>
        <time>2013-05-26T07:58:10Z</time>
      </trkpt>
      <trkpt lat="43.77189" lon="6.80138">
        <ele>1124.7</ele>
        <time>2013-05-26T07:59:20Z</time>
      </trkpt>
      <trkpt lat="43.77196" lon="6.80146">
        <ele>1124.62</ele>
        <time>2013-05-26T07:59:41Z</time>
      </trkpt>
      <trkpt lat="43.77202" lon="6.80137">
        <ele>1125.13</ele>
        <time>2013-05-26T08:01:23Z</time>
      </trkpt>
      <trkpt lat="43.7721" lon="6.80129">
        <ele>1125.35</ele>
        <time>2013-05-26T08:02:20Z</time>
      </trkpt>
      <trkpt lat="43.77201" lon="6.80128">
        <ele>1127.45</ele>
        <time>2013-05-26T08:03:26Z</time>
      </trkpt>
      <trkpt lat="43.77207" lon="6.80136">
        <ele>1127.05</ele>
        <time>2013-05-26T08:04:05Z</time>
      </trkpt>
      <trkpt lat="43.772" lon="6.80144">
        <ele>1127.3</ele>
        <time>2013-05-26T08:04:29Z</time>
      </trkpt>
      <trkpt lat="43.77195" lon="6.80158">
        <ele>1128.15</ele>
        <time>2013-05-26T08:04:38Z</time>
      </trkpt>
      <trkpt lat="43.77196" lon="6.80173">
        <ele>1128.64</ele>
        <time>2013-05-26T08:04:44Z</time>
      </trkpt>
      <trkpt lat="43.77202" lon="6.80187">
        <ele>1129.05</ele>
        <time>2013-05-26T08:04:56Z</time>
      </trkpt>
      <trkpt lat="43.77206" lon="6.80199">
        <ele>1129.2</ele>
        <time>2013-05-26T08:05:02Z</time>
      </trkpt>
      <trkpt lat="43.77214" lon="6.80211">
        <ele>1129.07</ele>
        <time>2013-05-26T08:05:14Z</time>
      </trkpt>
      <trkpt lat="43.77217" lon="6.80224">
        <ele>1127.9</ele>
        <time>2013-05-26T08:05:26Z</time>
      </trkpt>
      <trkpt lat="43.77227" lon="6.80234">
        <ele>1126.15</ele>
        <time>2013-05-26T08:05:38Z</time>
      </trkpt>
      <trkpt lat="43.77223" lon="6.80249">
        <ele>1118.22</ele>
        <time>2013-05-26T08:06:41Z</time>
      </trkpt>
      <trkpt lat="43.77221" lon="6.80262">
        <ele>1117.58</ele>
        <time>2013-05-26T08:06:47Z</time>
      </trkpt>
      <trkpt lat="43.77219" lon="6.80276">
        <ele>1116.4</ele>
        <time>2013-05-26T08:06:56Z</time>
      </trkpt>
      <trkpt lat="43.77217" lon="6.80291">
        <ele>1115.45</ele>
        <time>2013-05-26T08:07:05Z</time>
      </trkpt>
      <trkpt lat="43.77215" lon="6.80307">
        <ele>1114.62</ele>
        <time>2013-05-26T08:07:14Z</time>
      </trkpt>
      <trkpt lat="43.77211" lon="6.80319">
        <ele>1113.74</ele>
        <time>2013-05-26T08:07:23Z</time>
      </trkpt>
      <trkpt lat="43.77204" lon="6.80334">
        <ele>1112.47</ele>
        <time>2013-05-26T08:07:35Z</time>
      </trkpt>
      <trkpt lat="43.77204" lon="6.80349">
        <ele>1110.87</ele>
        <time>2013-05-26T08:07:47Z</time>
      </trkpt>
      <trkpt lat="43.772" lon="6.80362">
        <ele>1109.83</ele>
        <time>2013-05-26T08:07:56Z</time>
      </trkpt>
      <trkpt lat="43.77195" lon="6.80374">
        <ele>1108.39</ele>
        <time>2013-05-26T08:08:05Z</time>
      </trkpt>
      <trkpt lat="43.77188" lon="6.80382">
        <ele>1106.19</ele>
        <time>2013-05-26T08:08:32Z</time>
      </trkpt>
      <trkpt lat="43.77182" lon="6.80393">
        <ele>1103.47</ele>
        <time>2013-05-26T08:09:05Z</time>
      </trkpt>
      <trkpt lat="43.77172" lon="6.80399">
        <ele>1100.94</ele>
        <time>2013-05-26T08:09:44Z</time>
      </trkpt>
      <trkpt lat="43.77161" lon="6.80407">
        <ele>1100.48</ele>
        <time>2013-05-26T08:09:53Z</time>
      </trkpt>
      <trkpt lat="43.77153" lon="6.80417">
        <ele>1100.32</ele>
        <time>2013-05-26T08:10:02Z</time>
      </trkpt>
      <trkpt lat="43.77147" lon="6.80428">
        <ele>1099.9</ele>
        <time>2013-05-26T08:10:11Z</time>
      </trkpt>
      <trkpt lat="43.77139" lon="6.80439">
        <ele>1099.35</ele>
        <time>2013-05-26T08:10:20Z</time>
      </trkpt>
      <trkpt lat="43.7714" lon="6.80456">
        <ele>1098.26</ele>
        <time>2013-05-26T08:10:29Z</time>
      </trkpt>
      <trkpt lat="43.77141" lon="6.80468">
        <ele>1097.09</ele>
        <time>2013-05-26T08:10:38Z</time>
      </trkpt>
      <trkpt lat="43.77142" lon="6.80485">
        <ele>1096.09</ele>
        <time>2013-05-26T08:10:50Z</time>
      </trkpt>
      <trkpt lat="43.77143" lon="6.80499">
        <ele>1095.31</ele>
        <time>2013-05-26T08:10:59Z</time>
      </trkpt>
      <trkpt lat="43.77145" lon="6.80516">
        <ele>1094.92</ele>
        <time>2013-05-26T08:11:08Z</time>
      </trkpt>
      <trkpt lat="43.77145" lon="6.80531">
        <ele>1094.73</ele>
        <time>2013-05-26T08:11:17Z</time>
      </trkpt>
      <trkpt lat="43.77147" lon="6.80546">
        <ele>1094.8</ele>
        <time>2013-05-26T08:11:26Z</time>
      </trkpt>
      <trkpt lat="43.77147" lon="6.80562">
        <ele>1094.63</ele>
        <time>2013-05-26T08:11:32Z</time>
      </trkpt>
      <trkpt lat="43.77145" lon="6.80577">
        <ele>1094.42</ele>
        <time>2013-05-26T08:11:41Z</time>
      </trkpt>
      <trkpt lat="43.77144" lon="6.8059">
        <ele>1094.51</ele>
        <time>2013-05-26T08:11:47Z</time>
      </trkpt>
      <trkpt lat="43.77145" lon="6.80603">
        <ele>1094.71</ele>
        <time>2013-05-26T08:11:53Z</time>
      </trkpt>
      <trkpt lat="43.77149" lon="6.80619">
        <ele>1094.91</ele>
        <time>2013-05-26T08:12:02Z</time>
      </trkpt>
      <trkpt lat="43.77151" lon="6.80635">
        <ele>1095.43</ele>
        <time>2013-05-26T08:12:14Z</time>
      </trkpt>
      <trkpt lat="43.77152" lon="6.8065">
        <ele>1095.37</ele>
        <time>2013-05-26T08:12:26Z</time>
      </trkpt>
      <trkpt lat="43.77157" lon="6.80666">
        <ele>1094.93</ele>
        <time>2013-05-26T08:12:35Z</time>
      </trkpt>
      <trkpt lat="43.77161" lon="6.80678">
        <ele>1094.47</ele>
        <time>2013-05-26T08:12:44Z</time>
      </trkpt>
      <trkpt lat="43.77166" lon="6.80693">
        <ele>1093.6</ele>
        <time>2013-05-26T08:12:56Z</time>
      </trkpt>
      <trkpt lat="43.77165" lon="6.80707">
        <ele>1092.08</ele>
        <time>2013-05-26T08:13:08Z</time>
      </trkpt>
      <trkpt lat="43.77162" lon="6.80721">
        <ele>1091.11</ele>
        <time>2013-05-26T08:13:20Z</time>
      </trkpt>
      <trkpt lat="43.77158" lon="6.80734">
        <ele>1090.71</ele>
        <time>2013-05-26T08:13:29Z</time>
      </trkpt>
      <trkpt lat="43.77156" lon="6.80749">
        <ele>1090.21</ele>
        <time>2013-05-26T08:13:38Z</time>
      </trkpt>
      <trkpt lat="43.77154" lon="6.80765">
        <ele>1089.68</ele>
        <time>2013-05-26T08:13:47Z</time>
      </trkpt>
      <trkpt lat="43.77155" lon="6.8078">
        <ele>1089.31</ele>
        <time>2013-05-26T08:13:56Z</time>
      </trkpt>
      <trkpt lat="43.7716" lon="6.80791">
        <ele>1089.42</ele>
        <time>2013-05-26T08:14:08Z</time>
      </trkpt>
      <trkpt lat="43.77157" lon="6.80808">
        <ele>1089.13</ele>
        <time>2013-05-26T08:14:14Z</time>
      </trkpt>
      <trkpt lat="43.77158" lon="6.80825">
        <ele>1088.52</ele>
        <time>2013-05-26T08:14:23Z</time>
      </trkpt>
      <trkpt lat="43.77163" lon="6.80836">
        <ele>1088.13</ele>
        <time>2013-05-26T08:14:32Z</time>
      </trkpt>
      <trkpt lat="43.77163" lon="6.80849">
        <ele>1088.07</ele>
        <time>2013-05-26T08:14:50Z</time>
      </trkpt>
      <trkpt lat="43.77164" lon="6.80863">
        <ele>1088.16</ele>
        <time>2013-05-26T08:14:59Z</time>
      </trkpt>
      <trkpt lat="43.77164" lon="6.80877">
        <ele>1088.36</ele>
        <time>2013-05-26T08:15:14Z</time>
      </trkpt>
      <trkpt lat="43.77163" lon="6.8089">
        <ele>1088.37</ele>
        <time>2013-05-26T08:15:29Z</time>
      </trkpt>
      <trkpt lat="43.7717" lon="6.80906">
        <ele>1088.18</ele>
        <time>2013-05-26T08:15:38Z</time>
      </trkpt>
      <trkpt lat="43.77173" lon="6.80922">
        <ele>1088.11</ele>
        <time>2013-05-26T08:15:47Z</time>
      </trkpt>
      <trkpt lat="43.77175" lon="6.80936">
        <ele>1087.82</ele>
        <time>2013-05-26T08:16:02Z</time>
      </trkpt>
      <trkpt lat="43.77178" lon="6.80949">
        <ele>1086.87</ele>
        <time>2013-05-26T08:16:14Z</time>
      </trkpt>
      <trkpt lat="43.7718" lon="6.80962">
        <ele>1086.09</ele>
        <time>2013-05-26T08:16:26Z</time>
      </trkpt>
      <trkpt lat="43.77182" lon="6.80978">
        <ele>1085.48</ele>
        <time>2013-05-26T08:16:38Z</time>
      </trkpt>
      <trkpt lat="43.77182" lon="6.80994">
        <ele>1084.74</ele>
        <time>2013-05-26T08:16:50Z</time>
      </trkpt>
      <trkpt lat="43.77182" lon="6.81006">
        <ele>1083.79</ele>
        <time>2013-05-26T08:17:05Z</time>
      </trkpt>
      <trkpt lat="43.7718" lon="6.81021">
        <ele>1082.55</ele>
        <time>2013-05-26T08:17:26Z</time>
      </trkpt>
      <trkpt lat="43.7718" lon="6.81038">
        <ele>1082.57</ele>
        <time>2013-05-26T08:17:35Z</time>
      </trkpt>
      <trkpt lat="43.77184" lon="6.8105">
        <ele>1083.19</ele>
        <time>2013-05-26T08:17:59Z</time>
      </trkpt>
      <trkpt lat="43.77183" lon="6.81062">
        <ele>1083.53</ele>
        <time>2013-05-26T08:18:23Z</time>
      </trkpt>
      <trkpt lat="43.77178" lon="6.81075">
        <ele>1083.73</ele>
        <time>2013-05-26T08:18:38Z</time>
      </trkpt>
      <trkpt lat="43.77172" lon="6.81085">
        <ele>1083.72</ele>
        <time>2013-05-26T08:18:47Z</time>
      </trkpt>
      <trkpt lat="43.77164" lon="6.81091">
        <ele>1084.2</ele>
        <time>2013-05-26T08:18:59Z</time>
      </trkpt>
      <trkpt lat="43.77154" lon="6.81098">
        <ele>1084.75</ele>
        <time>2013-05-26T08:19:26Z</time>
      </trkpt>
      <trkpt lat="43.77165" lon="6.811">
        <ele>1084.72</ele>
        <time>2013-05-26T08:20:05Z</time>
      </trkpt>
      <trkpt lat="43.77173" lon="6.81107">
        <ele>1084.38</ele>
        <time>2013-05-26T08:20:14Z</time>
      </trkpt>
      <trkpt lat="43.77179" lon="6.81117">
        <ele>1084.07</ele>
        <time>2013-05-26T08:20:23Z</time>
      </trkpt>
      <trkpt lat="43.77187" lon="6.81125">
        <ele>1079.83</ele>
        <time>2013-05-26T08:22:35Z</time>
      </trkpt>
      <trkpt lat="43.77195" lon="6.81133">
        <ele>1078.56</ele>
        <time>2013-05-26T08:22:50Z</time>
      </trkpt>
      <trkpt lat="43.77201" lon="6.81145">
        <ele>1077.52</ele>
        <time>2013-05-26T08:22:59Z</time>
      </trkpt>
      <trkpt lat="43.77208" lon="6.81152">
        <ele>1075.76</ele>
        <time>2013-05-26T08:23:26Z</time>
      </trkpt>
      <trkpt lat="43.77217" lon="6.81161">
        <ele>1075.14</ele>
        <time>2013-05-26T08:23:35Z</time>
      </trkpt>
      <trkpt lat="43.77226" lon="6.81167">
        <ele>1075.36</ele>
        <time>2013-05-26T08:23:44Z</time>
      </trkpt>
      <trkpt lat="43.77235" lon="6.81168">
        <ele>1076.85</ele>
        <time>2013-05-26T08:23:56Z</time>
      </trkpt>
      <trkpt lat="43.77242" lon="6.81177">
        <ele>1077.66</ele>
        <time>2013-05-26T08:24:05Z</time>
      </trkpt>
      <trkpt lat="43.77237" lon="6.8119">
        <ele>1077.84</ele>
        <time>2013-05-26T08:24:17Z</time>
      </trkpt>
      <trkpt lat="43.77229" lon="6.81198">
        <ele>1078.02</ele>
        <time>2013-05-26T08:24:32Z</time>
      </trkpt>
      <trkpt lat="43.7722" lon="6.81204">
        <ele>1078.71</ele>
        <time>2013-05-26T08:24:53Z</time>
      </trkpt>
      <trkpt lat="43.77211" lon="6.81212">
        <ele>1078.82</ele>
        <time>2013-05-26T08:25:02Z</time>
      </trkpt>
      <trkpt lat="43.772" lon="6.81221">
        <ele>1078.78</ele>
        <time>2013-05-26T08:25:14Z</time>
      </trkpt>
      <trkpt lat="43.77192" lon="6.81227">
        <ele>1077.91</ele>
        <time>2013-05-26T08:25:35Z</time>
      </trkpt>
      <trkpt lat="43.77184" lon="6.81235">
        <ele>1077.62</ele>
        <time>2013-05-26T08:25:44Z</time>
      </trkpt>
      <trkpt lat="43.77178" lon="6.81246">
        <ele>1077.28</ele>
        <time>2013-05-26T08:25:53Z</time>
      </trkpt>
      <trkpt lat="43.77171" lon="6.81258">
        <ele>1076.55</ele>
        <time>2013-05-26T08:26:02Z</time>
      </trkpt>
      <trkpt lat="43.77163" lon="6.8127">
        <ele>1076.17</ele>
        <time>2013-05-26T08:26:11Z</time>
      </trkpt>
      <trkpt lat="43.77157" lon="6.81283">
        <ele>1075.72</ele>
        <time>2013-05-26T08:26:20Z</time>
      </trkpt>
      <trkpt lat="43.77152" lon="6.81297">
        <ele>1074.92</ele>
        <time>2013-05-26T08:26:29Z</time>
      </trkpt>
      <trkpt lat="43.77147" lon="6.81309">
        <ele>1073.92</ele>
        <time>2013-05-26T08:26:38Z</time>
      </trkpt>
      <trkpt lat="43.77139" lon="6.81321">
        <ele>1072.72</ele>
        <time>2013-05-26T08:26:53Z</time>
      </trkpt>
      <trkpt lat="43.77134" lon="6.81335">
        <ele>1072.55</ele>
        <time>2013-05-26T08:27:05Z</time>
      </trkpt>
      <trkpt lat="43.77126" lon="6.81348">
        <ele>1072.82</ele>
        <time>2013-05-26T08:27:14Z</time>
      </trkpt>
      <trkpt lat="43.77121" lon="6.81361">
        <ele>1074.45</ele>
        <time>2013-05-26T08:27:26Z</time>
      </trkpt>
      <trkpt lat="43.7712" lon="6.81373">
        <ele>1075.51</ele>
        <time>2013-05-26T08:27:35Z</time>
      </trkpt>
      <trkpt lat="43.77115" lon="6.81387">
        <ele>1077.08</ele>
        <time>2013-05-26T08:27:50Z</time>
      </trkpt>
      <trkpt lat="43.77113" lon="6.81401">
        <ele>1078.42</ele>
        <time>2013-05-26T08:27:59Z</time>
      </trkpt>
      <trkpt lat="43.77112" lon="6.81415">
        <ele>1079.5</ele>
        <time>2013-05-26T08:28:08Z</time>
      </trkpt>
      <trkpt lat="43.77109" lon="6.81428">
        <ele>1079.75</ele>
        <time>2013-05-26T08:28:17Z</time>
      </trkpt>
      <trkpt lat="43.77102" lon="6.81443">
        <ele>1078.16</ele>
        <time>2013-05-26T08:28:29Z</time>
      </trkpt>
      <trkpt lat="43.77095" lon="6.81455">
        <ele>1076.64</ele>
        <time>2013-05-26T08:28:38Z</time>
      </trkpt>
      <trkpt lat="43.77088" lon="6.81464">
        <ele>1075.22</ele>
        <time>2013-05-26T08:28:47Z</time>
      </trkpt>
      <trkpt lat="43.77085" lon="6.81476">
        <ele>1074.16</ele>
        <time>2013-05-26T08:29:05Z</time>
      </trkpt>
      <trkpt lat="43.7709" lon="6.81487">
        <ele>1074.69</ele>
        <time>2013-05-26T08:29:20Z</time>
      </trkpt>
      <trkpt lat="43.77095" lon="6.815">
        <ele>1074.74</ele>
        <time>2013-05-26T08:30:08Z</time>
      </trkpt>
      <trkpt lat="43.77099" lon="6.81511">
        <ele>1075.23</ele>
        <time>2013-05-26T08:30:20Z</time>
      </trkpt>
      <trkpt lat="43.7711" lon="6.81515">
        <ele>1078.17</ele>
        <time>2013-05-26T08:30:38Z</time>
      </trkpt>
      <trkpt lat="43.77117" lon="6.81523">
        <ele>1082.5</ele>
        <time>2013-05-26T08:30:59Z</time>
      </trkpt>
      <trkpt lat="43.77127" lon="6.81529">
        <ele>1085.59</ele>
        <time>2013-05-26T08:31:14Z</time>
      </trkpt>
      <trkpt lat="43.77136" lon="6.81534">
        <ele>1089.13</ele>
        <time>2013-05-26T08:31:32Z</time>
      </trkpt>
      <trkpt lat="43.77145" lon="6.81543">
        <ele>1091.28</ele>
        <time>2013-05-26T08:31:50Z</time>
      </trkpt>
      <trkpt lat="43.77154" lon="6.8155">
        <ele>1092.45</ele>
        <time>2013-05-26T08:32:08Z</time>
      </trkpt>
      <trkpt lat="43.77164" lon="6.81555">
        <ele>1093.55</ele>
        <time>2013-05-26T08:32:26Z</time>
      </trkpt>
      <trkpt lat="43.77173" lon="6.8156">
        <ele>1094.66</ele>
        <time>2013-05-26T08:32:38Z</time>
      </trkpt>
      <trkpt lat="43.77182" lon="6.81565">
        <ele>1094.91</ele>
        <time>2013-05-26T08:32:53Z</time>
      </trkpt>
      <trkpt lat="43.77191" lon="6.81574">
        <ele>1095.9</ele>
        <time>2013-05-26T08:33:14Z</time>
      </trkpt>
      <trkpt lat="43.77194" lon="6.81586">
        <ele>1097.91</ele>
        <time>2013-05-26T08:33:37Z</time>
      </trkpt>
      <trkpt lat="43.77201" lon="6.81598">
        <ele>1098</ele>
        <time>2013-05-26T08:33:55Z</time>
      </trkpt>
      <trkpt lat="43.77209" lon="6.81606">
        <ele>1098.89</ele>
        <time>2013-05-26T08:34:10Z</time>
      </trkpt>
      <trkpt lat="43.77219" lon="6.81614">
        <ele>1100.37</ele>
        <time>2013-05-26T08:34:29Z</time>
      </trkpt>
      <trkpt lat="43.77225" lon="6.81604">
        <ele>1102.09</ele>
        <time>2013-05-26T08:34:56Z</time>
      </trkpt>
      <trkpt lat="43.77224" lon="6.81591">
        <ele>1102.79</ele>
        <time>2013-05-26T08:35:11Z</time>
      </trkpt>
      <trkpt lat="43.77232" lon="6.81586">
        <ele>1103.67</ele>
        <time>2013-05-26T08:35:44Z</time>
      </trkpt>
      <trkpt lat="43.77241" lon="6.81598">
        <ele>1105.63</ele>
        <time>2013-05-26T08:36:05Z</time>
      </trkpt>
      <trkpt lat="43.77246" lon="6.8161">
        <ele>1108.68</ele>
        <time>2013-05-26T08:36:20Z</time>
      </trkpt>
      <trkpt lat="43.77255" lon="6.81613">
        <ele>1112.31</ele>
        <time>2013-05-26T08:36:35Z</time>
      </trkpt>
      <trkpt lat="43.77264" lon="6.81617">
        <ele>1115.83</ele>
        <time>2013-05-26T08:36:53Z</time>
      </trkpt>
      <trkpt lat="43.77274" lon="6.81617">
        <ele>1118.24</ele>
        <time>2013-05-26T08:37:08Z</time>
      </trkpt>
      <trkpt lat="43.77282" lon="6.81623">
        <ele>1121.3</ele>
        <time>2013-05-26T08:37:29Z</time>
      </trkpt>
      <trkpt lat="43.77293" lon="6.8162">
        <ele>1123.58</ele>
        <time>2013-05-26T08:37:47Z</time>
      </trkpt>
      <trkpt lat="43.773" lon="6.81611">
        <ele>1125.96</ele>
        <time>2013-05-26T08:38:05Z</time>
      </trkpt>
      <trkpt lat="43.77304" lon="6.81598">
        <ele>1128.9</ele>
        <time>2013-05-26T08:38:23Z</time>
      </trkpt>
      <trkpt lat="43.77304" lon="6.81585">
        <ele>1130.45</ele>
        <time>2013-05-26T08:38:38Z</time>
      </trkpt>
      <trkpt lat="43.77306" lon="6.81571">
        <ele>1132.6</ele>
        <time>2013-05-26T08:38:59Z</time>
      </trkpt>
      <trkpt lat="43.77305" lon="6.81558">
        <ele>1134.8</ele>
        <time>2013-05-26T08:39:11Z</time>
      </trkpt>
      <trkpt lat="43.77306" lon="6.81544">
        <ele>1137.04</ele>
        <time>2013-05-26T08:39:26Z</time>
      </trkpt>
      <trkpt lat="43.77305" lon="6.81519">
        <ele>1141.35</ele>
        <time>2013-05-26T08:39:47Z</time>
      </trkpt>
      <trkpt lat="43.77305" lon="6.81505">
        <ele>1147.36</ele>
        <time>2013-05-26T08:40:17Z</time>
      </trkpt>
      <trkpt lat="43.77303" lon="6.8149">
        <ele>1149.33</ele>
        <time>2013-05-26T08:40:32Z</time>
      </trkpt>
      <trkpt lat="43.77304" lon="6.81477">
        <ele>1151.88</ele>
        <time>2013-05-26T08:40:50Z</time>
      </trkpt>
      <trkpt lat="43.77301" lon="6.81463">
        <ele>1153.8</ele>
        <time>2013-05-26T08:41:05Z</time>
      </trkpt>
      <trkpt lat="43.773" lon="6.8145">
        <ele>1156.1</ele>
        <time>2013-05-26T08:41:53Z</time>
      </trkpt>
      <trkpt lat="43.773" lon="6.81434">
        <ele>1157.33</ele>
        <time>2013-05-26T08:42:02Z</time>
      </trkpt>
      <trkpt lat="43.77308" lon="6.81425">
        <ele>1161.04</ele>
        <time>2013-05-26T08:42:29Z</time>
      </trkpt>
      <trkpt lat="43.77318" lon="6.81421">
        <ele>1161.79</ele>
        <time>2013-05-26T08:42:41Z</time>
      </trkpt>
      <trkpt lat="43.7733" lon="6.81419">
        <ele>1162.06</ele>
        <time>2013-05-26T08:42:53Z</time>
      </trkpt>
      <trkpt lat="43.77339" lon="6.81415">
        <ele>1161.62</ele>
        <time>2013-05-26T08:43:05Z</time>
      </trkpt>
      <trkpt lat="43.77348" lon="6.81416">
        <ele>1159.49</ele>
        <time>2013-05-26T08:43:38Z</time>
      </trkpt>
      <trkpt lat="43.77358" lon="6.8142">
        <ele>1160.41</ele>
        <time>2013-05-26T08:45:02Z</time>
      </trkpt>
      <trkpt lat="43.77367" lon="6.81417">
        <ele>1160.28</ele>
        <time>2013-05-26T08:45:23Z</time>
      </trkpt>
      <trkpt lat="43.77376" lon="6.81415">
        <ele>1161.15</ele>
        <time>2013-05-26T08:45:35Z</time>
      </trkpt>
      <trkpt lat="43.77382" lon="6.81404">
        <ele>1162.73</ele>
        <time>2013-05-26T08:45:47Z</time>
      </trkpt>
      <trkpt lat="43.77388" lon="6.81391">
        <ele>1164.85</ele>
        <time>2013-05-26T08:45:59Z</time>
      </trkpt>
      <trkpt lat="43.77396" lon="6.8138">
        <ele>1165.62</ele>
        <time>2013-05-26T08:46:14Z</time>
      </trkpt>
      <trkpt lat="43.774" lon="6.81368">
        <ele>1165.41</ele>
        <time>2013-05-26T08:46:23Z</time>
      </trkpt>
      <trkpt lat="43.77408" lon="6.81359">
        <ele>1163.92</ele>
        <time>2013-05-26T08:46:38Z</time>
      </trkpt>
      <trkpt lat="43.77414" lon="6.81349">
        <ele>1161.59</ele>
        <time>2013-05-26T08:46:53Z</time>
      </trkpt>
      <trkpt lat="43.7742" lon="6.81336">
        <ele>1157.17</ele>
        <time>2013-05-26T08:47:11Z</time>
      </trkpt>
      <trkpt lat="43.77422" lon="6.81323">
        <ele>1153.53</ele>
        <time>2013-05-26T08:47:23Z</time>
      </trkpt>
      <trkpt lat="43.77425" lon="6.81309">
        <ele>1150.71</ele>
        <time>2013-05-26T08:47:35Z</time>
      </trkpt>
      <trkpt lat="43.77435" lon="6.81299">
        <ele>1151.79</ele>
        <time>2013-05-26T08:47:47Z</time>
      </trkpt>
      <trkpt lat="43.77447" lon="6.81289">
        <ele>1154.02</ele>
        <time>2013-05-26T08:47:59Z</time>
      </trkpt>
      <trkpt lat="43.7746" lon="6.81282">
        <ele>1155.36</ele>
        <time>2013-05-26T08:48:05Z</time>
      </trkpt>
      <trkpt lat="43.7747" lon="6.81275">
        <ele>1157.39</ele>
        <time>2013-05-26T08:48:14Z</time>
      </trkpt>
      <trkpt lat="43.7748" lon="6.81269">
        <ele>1159.95</ele>
        <time>2013-05-26T08:48:26Z</time>
      </trkpt>
      <trkpt lat="43.7749" lon="6.81265">
        <ele>1162.31</ele>
        <time>2013-05-26T08:48:35Z</time>
      </trkpt>
      <trkpt lat="43.77502" lon="6.81264">
        <ele>1164.99</ele>
        <time>2013-05-26T08:48:47Z</time>
      </trkpt>
      <trkpt lat="43.77511" lon="6.81264">
        <ele>1166.41</ele>
        <time>2013-05-26T08:48:54Z</time>
      </trkpt>
      <trkpt lat="43.77522" lon="6.81268">
        <ele>1169.01</ele>
        <time>2013-05-26T08:49:06Z</time>
      </trkpt>
      <trkpt lat="43.77531" lon="6.81273">
        <ele>1170.22</ele>
        <time>2013-05-26T08:49:15Z</time>
      </trkpt>
      <trkpt lat="43.77541" lon="6.81274">
        <ele>1170.93</ele>
        <time>2013-05-26T08:49:21Z</time>
      </trkpt>
      <trkpt lat="43.77552" lon="6.81273">
        <ele>1171.83</ele>
        <time>2013-05-26T08:49:30Z</time>
      </trkpt>
      <trkpt lat="43.77558" lon="6.81264">
        <ele>1172.54</ele>
        <time>2013-05-26T08:49:42Z</time>
      </trkpt>
      <trkpt lat="43.77566" lon="6.81256">
        <ele>1172.84</ele>
        <time>2013-05-26T08:50:24Z</time>
      </trkpt>
      <trkpt lat="43.77575" lon="6.81255">
        <ele>1171.93</ele>
        <time>2013-05-26T08:51:15Z</time>
      </trkpt>
      <trkpt lat="43.77584" lon="6.81247">
        <ele>1172.87</ele>
        <time>2013-05-26T08:52:09Z</time>
      </trkpt>
      <trkpt lat="43.77589" lon="6.81233">
        <ele>1173.93</ele>
        <time>2013-05-26T08:52:21Z</time>
      </trkpt>
      <trkpt lat="43.77592" lon="6.81221">
        <ele>1175.61</ele>
        <time>2013-05-26T08:52:36Z</time>
      </trkpt>
      <trkpt lat="43.77595" lon="6.81209">
        <ele>1177.11</ele>
        <time>2013-05-26T08:52:51Z</time>
      </trkpt>
      <trkpt lat="43.77593" lon="6.81195">
        <ele>1177.99</ele>
        <time>2013-05-26T08:53:00Z</time>
      </trkpt>
      <trkpt lat="43.7759" lon="6.81179">
        <ele>1178.92</ele>
        <time>2013-05-26T08:53:15Z</time>
      </trkpt>
      <trkpt lat="43.77595" lon="6.81169">
        <ele>1180.29</ele>
        <time>2013-05-26T08:53:33Z</time>
      </trkpt>
      <trkpt lat="43.77602" lon="6.8118">
        <ele>1181.25</ele>
        <time>2013-05-26T08:53:51Z</time>
      </trkpt>
      <trkpt lat="43.77606" lon="6.81192">
        <ele>1181.75</ele>
        <time>2013-05-26T08:54:03Z</time>
      </trkpt>
      <trkpt lat="43.77612" lon="6.81203">
        <ele>1182.82</ele>
        <time>2013-05-26T08:54:24Z</time>
      </trkpt>
      <trkpt lat="43.77616" lon="6.81217">
        <ele>1183.63</ele>
        <time>2013-05-26T08:54:36Z</time>
      </trkpt>
      <trkpt lat="43.77622" lon="6.81227">
        <ele>1185.06</ele>
        <time>2013-05-26T08:54:48Z</time>
      </trkpt>
      <trkpt lat="43.77629" lon="6.81237">
        <ele>1186.49</ele>
        <time>2013-05-26T08:55:00Z</time>
      </trkpt>
      <trkpt lat="43.7764" lon="6.81244">
        <ele>1188</ele>
        <time>2013-05-26T08:55:15Z</time>
      </trkpt>
      <trkpt lat="43.77647" lon="6.81252">
        <ele>1189.29</ele>
        <time>2013-05-26T08:55:30Z</time>
      </trkpt>
      <trkpt lat="43.77655" lon="6.81257">
        <ele>1191.8</ele>
        <time>2013-05-26T08:55:48Z</time>
      </trkpt>
      <trkpt lat="43.77664" lon="6.81262">
        <ele>1192.86</ele>
        <time>2013-05-26T08:56:21Z</time>
      </trkpt>
      <trkpt lat="43.77672" lon="6.81269">
        <ele>1193.43</ele>
        <time>2013-05-26T08:56:36Z</time>
      </trkpt>
      <trkpt lat="43.7768" lon="6.81276">
        <ele>1194.31</ele>
        <time>2013-05-26T08:56:48Z</time>
      </trkpt>
      <trkpt lat="43.7769" lon="6.81282">
        <ele>1196.92</ele>
        <time>2013-05-26T08:57:06Z</time>
      </trkpt>
      <trkpt lat="43.77698" lon="6.81287">
        <ele>1199.73</ele>
        <time>2013-05-26T08:57:21Z</time>
      </trkpt>
      <trkpt lat="43.77705" lon="6.81296">
        <ele>1203.57</ele>
        <time>2013-05-26T08:57:54Z</time>
      </trkpt>
      <trkpt lat="43.77712" lon="6.81287">
        <ele>1210.95</ele>
        <time>2013-05-26T08:59:36Z</time>
      </trkpt>
      <trkpt lat="43.77721" lon="6.81288">
        <ele>1211.79</ele>
        <time>2013-05-26T08:59:57Z</time>
      </trkpt>
      <trkpt lat="43.77731" lon="6.81288">
        <ele>1211.56</ele>
        <time>2013-05-26T09:00:09Z</time>
      </trkpt>
      <trkpt lat="43.77739" lon="6.81279">
        <ele>1212.01</ele>
        <time>2013-05-26T09:00:24Z</time>
      </trkpt>
      <trkpt lat="43.77747" lon="6.81269">
        <ele>1212.54</ele>
        <time>2013-05-26T09:00:39Z</time>
      </trkpt>
      <trkpt lat="43.77752" lon="6.81257">
        <ele>1213.63</ele>
        <time>2013-05-26T09:00:54Z</time>
      </trkpt>
      <trkpt lat="43.77762" lon="6.81251">
        <ele>1215.24</ele>
        <time>2013-05-26T09:01:21Z</time>
      </trkpt>
      <trkpt lat="43.77771" lon="6.81254">
        <ele>1215.89</ele>
        <time>2013-05-26T09:01:36Z</time>
      </trkpt>
      <trkpt lat="43.77781" lon="6.81257">
        <ele>1216.69</ele>
        <time>2013-05-26T09:01:48Z</time>
      </trkpt>
      <trkpt lat="43.77792" lon="6.81259">
        <ele>1218.95</ele>
        <time>2013-05-26T09:03:30Z</time>
      </trkpt>
      <trkpt lat="43.77782" lon="6.81261">
        <ele>1217.89</ele>
        <time>2013-05-26T09:04:15Z</time>
      </trkpt>
      <trkpt lat="43.7779" lon="6.8127">
        <ele>1216.46</ele>
        <time>2013-05-26T09:04:30Z</time>
      </trkpt>
      <trkpt lat="43.77799" lon="6.81271">
        <ele>1215.71</ele>
        <time>2013-05-26T09:04:42Z</time>
      </trkpt>
      <trkpt lat="43.77808" lon="6.81267">
        <ele>1215.42</ele>
        <time>2013-05-26T09:04:54Z</time>
      </trkpt>
      <trkpt lat="43.77817" lon="6.81262">
        <ele>1215.34</ele>
        <time>2013-05-26T09:05:06Z</time>
      </trkpt>
      <trkpt lat="43.77827" lon="6.8126">
        <ele>1216.65</ele>
        <time>2013-05-26T09:05:24Z</time>
      </trkpt>
      <trkpt lat="43.77833" lon="6.81249">
        <ele>1217.89</ele>
        <time>2013-05-26T09:05:36Z</time>
      </trkpt>
      <trkpt lat="43.7784" lon="6.81238">
        <ele>1219.47</ele>
        <time>2013-05-26T09:05:51Z</time>
      </trkpt>
      <trkpt lat="43.77849" lon="6.81235">
        <ele>1222.86</ele>
        <time>2013-05-26T09:06:12Z</time>
      </trkpt>
      <trkpt lat="43.77858" lon="6.81239">
        <ele>1226.72</ele>
        <time>2013-05-26T09:06:27Z</time>
      </trkpt>
      <trkpt lat="43.77867" lon="6.81243">
        <ele>1229.8</ele>
        <time>2013-05-26T09:06:39Z</time>
      </trkpt>
      <trkpt lat="43.77875" lon="6.81252">
        <ele>1233.49</ele>
        <time>2013-05-26T09:06:57Z</time>
      </trkpt>
      <trkpt lat="43.77878" lon="6.81264">
        <ele>1236.94</ele>
        <time>2013-05-26T09:07:15Z</time>
      </trkpt>
      <trkpt lat="43.77887" lon="6.8127">
        <ele>1240.65</ele>
        <time>2013-05-26T09:07:48Z</time>
      </trkpt>
      <trkpt lat="43.77894" lon="6.81279">
        <ele>1243.1</ele>
        <time>2013-05-26T09:08:06Z</time>
      </trkpt>
      <trkpt lat="43.77901" lon="6.81288">
        <ele>1246.52</ele>
        <time>2013-05-26T09:08:31Z</time>
      </trkpt>
      <trkpt lat="43.77911" lon="6.81292">
        <ele>1249.96</ele>
        <time>2013-05-26T09:08:49Z</time>
      </trkpt>
      <trkpt lat="43.7792" lon="6.813">
        <ele>1254.18</ele>
        <time>2013-05-26T09:09:07Z</time>
      </trkpt>
      <trkpt lat="43.77928" lon="6.81309">
        <ele>1257.5</ele>
        <time>2013-05-26T09:09:22Z</time>
      </trkpt>
      <trkpt lat="43.77936" lon="6.81319">
        <ele>1262.07</ele>
        <time>2013-05-26T09:09:40Z</time>
      </trkpt>
      <trkpt lat="43.77943" lon="6.81328">
        <ele>1266.01</ele>
        <time>2013-05-26T09:09:55Z</time>
      </trkpt>
      <trkpt lat="43.77951" lon="6.81337">
        <ele>1268.55</ele>
        <time>2013-05-26T09:10:10Z</time>
      </trkpt>
      <trkpt lat="43.77958" lon="6.81345">
        <ele>1269.75</ele>
        <time>2013-05-26T09:10:25Z</time>
      </trkpt>
      <trkpt lat="43.77968" lon="6.8135">
        <ele>1269.38</ele>
        <time>2013-05-26T09:10:55Z</time>
      </trkpt>
      <trkpt lat="43.77976" lon="6.81357">
        <ele>1267.76</ele>
        <time>2013-05-26T09:11:13Z</time>
      </trkpt>
      <trkpt lat="43.77986" lon="6.81365">
        <ele>1267.73</ele>
        <time>2013-05-26T09:11:28Z</time>
      </trkpt>
      <trkpt lat="43.77994" lon="6.81371">
        <ele>1267.42</ele>
        <time>2013-05-26T09:11:43Z</time>
      </trkpt>
      <trkpt lat="43.77997" lon="6.81384">
        <ele>1267.91</ele>
        <time>2013-05-26T09:11:52Z</time>
      </trkpt>
      <trkpt lat="43.78001" lon="6.81396">
        <ele>1269.69</ele>
        <time>2013-05-26T09:12:01Z</time>
      </trkpt>
      <trkpt lat="43.78005" lon="6.81408">
        <ele>1273.42</ele>
        <time>2013-05-26T09:12:22Z</time>
      </trkpt>
      <trkpt lat="43.78015" lon="6.81411">
        <ele>1277.15</ele>
        <time>2013-05-26T09:12:40Z</time>
      </trkpt>
      <trkpt lat="43.78022" lon="6.81422">
        <ele>1281.45</ele>
        <time>2013-05-26T09:13:01Z</time>
      </trkpt>
      <trkpt lat="43.78028" lon="6.81431">
        <ele>1283.74</ele>
        <time>2013-05-26T09:13:13Z</time>
      </trkpt>
      <trkpt lat="43.78034" lon="6.81444">
        <ele>1286.46</ele>
        <time>2013-05-26T09:13:28Z</time>
      </trkpt>
      <trkpt lat="43.78042" lon="6.81451">
        <ele>1292.58</ele>
        <time>2013-05-26T09:14:31Z</time>
      </trkpt>
      <trkpt lat="43.78047" lon="6.81465">
        <ele>1294.34</ele>
        <time>2013-05-26T09:14:43Z</time>
      </trkpt>
      <trkpt lat="43.78051" lon="6.81479">
        <ele>1296.11</ele>
        <time>2013-05-26T09:14:58Z</time>
      </trkpt>
      <trkpt lat="43.7806" lon="6.81485">
        <ele>1297.49</ele>
        <time>2013-05-26T09:15:16Z</time>
      </trkpt>
      <trkpt lat="43.78068" lon="6.81489">
        <ele>1298.6</ele>
        <time>2013-05-26T09:15:28Z</time>
      </trkpt>
      <trkpt lat="43.78079" lon="6.81494">
        <ele>1300.77</ele>
        <time>2013-05-26T09:15:46Z</time>
      </trkpt>
      <trkpt lat="43.78089" lon="6.81496">
        <ele>1301.95</ele>
        <time>2013-05-26T09:15:55Z</time>
      </trkpt>
      <trkpt lat="43.78097" lon="6.81504">
        <ele>1303.27</ele>
        <time>2013-05-26T09:16:07Z</time>
      </trkpt>
      <trkpt lat="43.78106" lon="6.81508">
        <ele>1304.06</ele>
        <time>2013-05-26T09:16:19Z</time>
      </trkpt>
      <trkpt lat="43.78116" lon="6.81514">
        <ele>1305.27</ele>
        <time>2013-05-26T09:16:34Z</time>
      </trkpt>
      <trkpt lat="43.78126" lon="6.81515">
        <ele>1306.78</ele>
        <time>2013-05-26T09:16:49Z</time>
      </trkpt>
      <trkpt lat="43.78136" lon="6.81514">
        <ele>1307.87</ele>
        <time>2013-05-26T09:17:04Z</time>
      </trkpt>
      <trkpt lat="43.78147" lon="6.81514">
        <ele>1308.8</ele>
        <time>2013-05-26T09:17:16Z</time>
      </trkpt>
      <trkpt lat="43.78158" lon="6.81514">
        <ele>1309.4</ele>
        <time>2013-05-26T09:17:25Z</time>
      </trkpt>
      <trkpt lat="43.78169" lon="6.81511">
        <ele>1310.03</ele>
        <time>2013-05-26T09:17:37Z</time>
      </trkpt>
      <trkpt lat="43.7818" lon="6.8151">
        <ele>1310.84</ele>
        <time>2013-05-26T09:17:46Z</time>
      </trkpt>
      <trkpt lat="43.78191" lon="6.81509">
        <ele>1311.59</ele>
        <time>2013-05-26T09:17:58Z</time>
      </trkpt>
      <trkpt lat="43.78199" lon="6.815">
        <ele>1312.18</ele>
        <time>2013-05-26T09:19:20Z</time>
      </trkpt>
      <trkpt lat="43.78209" lon="6.81502">
        <ele>1312.34</ele>
        <time>2013-05-26T09:19:29Z</time>
      </trkpt>
      <trkpt lat="43.78218" lon="6.81508">
        <ele>1312.45</ele>
        <time>2013-05-26T09:19:44Z</time>
      </trkpt>
      <trkpt lat="43.78215" lon="6.81521">
        <ele>1315.03</ele>
        <time>2013-05-26T09:21:29Z</time>
      </trkpt>
      <trkpt lat="43.78219" lon="6.8151">
        <ele>1319.04</ele>
        <time>2013-05-26T09:23:56Z</time>
      </trkpt>
      <trkpt lat="43.78213" lon="6.81497">
        <ele>1318.24</ele>
        <time>2013-05-26T09:27:11Z</time>
      </trkpt>
      <trkpt lat="43.78216" lon="6.81484">
        <ele>1318.17</ele>
        <time>2013-05-26T09:27:20Z</time>
      </trkpt>
      <trkpt lat="43.78223" lon="6.81473">
        <ele>1318.33</ele>
        <time>2013-05-26T09:27:35Z</time>
      </trkpt>
      <trkpt lat="43.78232" lon="6.81466">
        <ele>1318.36</ele>
        <time>2013-05-26T09:27:47Z</time>
      </trkpt>
      <trkpt lat="43.78241" lon="6.81461">
        <ele>1317.83</ele>
        <time>2013-05-26T09:27:59Z</time>
      </trkpt>
      <trkpt lat="43.78248" lon="6.81448">
        <ele>1317.5</ele>
        <time>2013-05-26T09:28:11Z</time>
      </trkpt>
      <trkpt lat="43.78251" lon="6.81436">
        <ele>1317.5</ele>
        <time>2013-05-26T09:28:20Z</time>
      </trkpt>
      <trkpt lat="43.78254" lon="6.81424">
        <ele>1317.51</ele>
        <time>2013-05-26T09:28:38Z</time>
      </trkpt>
      <trkpt lat="43.78257" lon="6.81411">
        <ele>1317.7</ele>
        <time>2013-05-26T09:28:44Z</time>
      </trkpt>
      <trkpt lat="43.78261" lon="6.814">
        <ele>1317.9</ele>
        <time>2013-05-26T09:28:50Z</time>
      </trkpt>
      <trkpt lat="43.78258" lon="6.81387">
        <ele>1318.32</ele>
        <time>2013-05-26T09:28:59Z</time>
      </trkpt>
      <trkpt lat="43.78254" lon="6.81376">
        <ele>1318.86</ele>
        <time>2013-05-26T09:29:08Z</time>
      </trkpt>
      <trkpt lat="43.78254" lon="6.81361">
        <ele>1319.61</ele>
        <time>2013-05-26T09:29:17Z</time>
      </trkpt>
      <trkpt lat="43.78255" lon="6.81348">
        <ele>1320.36</ele>
        <time>2013-05-26T09:29:29Z</time>
      </trkpt>
      <trkpt lat="43.78255" lon="6.81335">
        <ele>1321.15</ele>
        <time>2013-05-26T09:29:41Z</time>
      </trkpt>
      <trkpt lat="43.78253" lon="6.81323">
        <ele>1321.95</ele>
        <time>2013-05-26T09:29:53Z</time>
      </trkpt>
      <trkpt lat="43.78251" lon="6.81309">
        <ele>1323.35</ele>
        <time>2013-05-26T09:30:08Z</time>
      </trkpt>
      <trkpt lat="43.78249" lon="6.81296">
        <ele>1324.24</ele>
        <time>2013-05-26T09:30:20Z</time>
      </trkpt>
      <trkpt lat="43.78259" lon="6.81294">
        <ele>1324.53</ele>
        <time>2013-05-26T09:30:35Z</time>
      </trkpt>
      <trkpt lat="43.78269" lon="6.81298">
        <ele>1325.36</ele>
        <time>2013-05-26T09:30:47Z</time>
      </trkpt>
      <trkpt lat="43.7828" lon="6.81303">
        <ele>1326.75</ele>
        <time>2013-05-26T09:30:59Z</time>
      </trkpt>
      <trkpt lat="43.7829" lon="6.81309">
        <ele>1328.28</ele>
        <time>2013-05-26T09:31:11Z</time>
      </trkpt>
      <trkpt lat="43.78301" lon="6.8131">
        <ele>1329.36</ele>
        <time>2013-05-26T09:31:23Z</time>
      </trkpt>
      <trkpt lat="43.78309" lon="6.81304">
        <ele>1330.84</ele>
        <time>2013-05-26T09:31:38Z</time>
      </trkpt>
      <trkpt lat="43.78312" lon="6.81289">
        <ele>1332.89</ele>
        <time>2013-05-26T09:32:16Z</time>
      </trkpt>
      <trkpt lat="43.78314" lon="6.81275">
        <ele>1333.22</ele>
        <time>2013-05-26T09:32:25Z</time>
      </trkpt>
      <trkpt lat="43.78316" lon="6.8126">
        <ele>1333.86</ele>
        <time>2013-05-26T09:32:34Z</time>
      </trkpt>
      <trkpt lat="43.78319" lon="6.81245">
        <ele>1334.56</ele>
        <time>2013-05-26T09:32:46Z</time>
      </trkpt>
      <trkpt lat="43.78323" lon="6.81231">
        <ele>1335.03</ele>
        <time>2013-05-26T09:32:58Z</time>
      </trkpt>
      <trkpt lat="43.78326" lon="6.81214">
        <ele>1335.19</ele>
        <time>2013-05-26T09:33:10Z</time>
      </trkpt>
      <trkpt lat="43.78329" lon="6.81202">
        <ele>1335.44</ele>
        <time>2013-05-26T09:33:19Z</time>
      </trkpt>
      <trkpt lat="43.78332" lon="6.81189">
        <ele>1335.67</ele>
        <time>2013-05-26T09:33:28Z</time>
      </trkpt>
      <trkpt lat="43.78336" lon="6.81174">
        <ele>1335.93</ele>
        <time>2013-05-26T09:33:40Z</time>
      </trkpt>
      <trkpt lat="43.7834" lon="6.8116">
        <ele>1335.96</ele>
        <time>2013-05-26T09:33:49Z</time>
      </trkpt>
      <trkpt lat="43.78345" lon="6.81146">
        <ele>1336.28</ele>
        <time>2013-05-26T09:34:13Z</time>
      </trkpt>
      <trkpt lat="43.7835" lon="6.81135">
        <ele>1336.77</ele>
        <time>2013-05-26T09:34:19Z</time>
      </trkpt>
      <trkpt lat="43.78356" lon="6.81123">
        <ele>1337.53</ele>
        <time>2013-05-26T09:34:28Z</time>
      </trkpt>
      <trkpt lat="43.78365" lon="6.81113">
        <ele>1338.64</ele>
        <time>2013-05-26T09:34:40Z</time>
      </trkpt>
      <trkpt lat="43.78373" lon="6.81106">
        <ele>1339.72</ele>
        <time>2013-05-26T09:34:49Z</time>
      </trkpt>
      <trkpt lat="43.78383" lon="6.81102">
        <ele>1340.72</ele>
        <time>2013-05-26T09:34:58Z</time>
      </trkpt>
      <trkpt lat="43.78395" lon="6.81095">
        <ele>1341.58</ele>
        <time>2013-05-26T09:35:07Z</time>
      </trkpt>
      <trkpt lat="43.78405" lon="6.81087">
        <ele>1342.79</ele>
        <time>2013-05-26T09:35:22Z</time>
      </trkpt>
      <trkpt lat="43.78414" lon="6.81077">
        <ele>1343.65</ele>
        <time>2013-05-26T09:35:34Z</time>
      </trkpt>
      <trkpt lat="43.78422" lon="6.81067">
        <ele>1343.65</ele>
        <time>2013-05-26T09:35:49Z</time>
      </trkpt>
      <trkpt lat="43.78429" lon="6.8106">
        <ele>1343.41</ele>
        <time>2013-05-26T09:35:58Z</time>
      </trkpt>
      <trkpt lat="43.78437" lon="6.81052">
        <ele>1343.63</ele>
        <time>2013-05-26T09:36:10Z</time>
      </trkpt>
      <trkpt lat="43.78441" lon="6.81039">
        <ele>1344.17</ele>
        <time>2013-05-26T09:36:34Z</time>
      </trkpt>
      <trkpt lat="43.78444" lon="6.81026">
        <ele>1344.02</ele>
        <time>2013-05-26T09:36:52Z</time>
      </trkpt>
      <trkpt lat="43.78451" lon="6.81018">
        <ele>1343.9</ele>
        <time>2013-05-26T09:37:49Z</time>
      </trkpt>
      <trkpt lat="43.7846" lon="6.80935">
        <ele>1342.48</ele>
        <time>2013-05-26T09:38:59Z</time>
      </trkpt>
      <trkpt lat="43.78459" lon="6.80682">
        <ele>1348.15</ele>
        <time>2013-05-26T09:42:08Z</time>
      </trkpt>
      <trkpt lat="43.78456" lon="6.80663">
        <ele>1337</ele>
        <time>2013-05-26T09:42:20Z</time>
      </trkpt>
      <trkpt lat="43.78459" lon="6.80644">
        <ele>1333.75</ele>
        <time>2013-05-26T09:42:35Z</time>
      </trkpt>
      <trkpt lat="43.78458" lon="6.8063">
        <ele>1333.14</ele>
        <time>2013-05-26T09:42:50Z</time>
      </trkpt>
      <trkpt lat="43.78451" lon="6.80616">
        <ele>1332.98</ele>
        <time>2013-05-26T09:42:59Z</time>
      </trkpt>
      <trkpt lat="43.7845" lon="6.80602">
        <ele>1333.05</ele>
        <time>2013-05-26T09:43:11Z</time>
      </trkpt>
      <trkpt lat="43.78451" lon="6.80588">
        <ele>1333.4</ele>
        <time>2013-05-26T09:43:23Z</time>
      </trkpt>
      <trkpt lat="43.7845" lon="6.80574">
        <ele>1334.07</ele>
        <time>2013-05-26T09:43:35Z</time>
      </trkpt>
      <trkpt lat="43.78453" lon="6.80562">
        <ele>1334.22</ele>
        <time>2013-05-26T09:43:44Z</time>
      </trkpt>
      <trkpt lat="43.78456" lon="6.80545">
        <ele>1334.15</ele>
        <time>2013-05-26T09:43:53Z</time>
      </trkpt>
      <trkpt lat="43.78452" lon="6.80533">
        <ele>1334.05</ele>
        <time>2013-05-26T09:44:02Z</time>
      </trkpt>
      <trkpt lat="43.78451" lon="6.80517">
        <ele>1334.16</ele>
        <time>2013-05-26T09:44:11Z</time>
      </trkpt>
      <trkpt lat="43.78452" lon="6.80502">
        <ele>1334.03</ele>
        <time>2013-05-26T09:44:20Z</time>
      </trkpt>
      <trkpt lat="43.78454" lon="6.80489">
        <ele>1333.04</ele>
        <time>2013-05-26T09:44:38Z</time>
      </trkpt>
      <trkpt lat="43.78459" lon="6.80477">
        <ele>1332.62</ele>
        <time>2013-05-26T09:44:44Z</time>
      </trkpt>
      <trkpt lat="43.78461" lon="6.80462">
        <ele>1332.12</ele>
        <time>2013-05-26T09:44:59Z</time>
      </trkpt>
      <trkpt lat="43.78462" lon="6.80449">
        <ele>1332.81</ele>
        <time>2013-05-26T09:45:11Z</time>
      </trkpt>
      <trkpt lat="43.78463" lon="6.80436">
        <ele>1333.52</ele>
        <time>2013-05-26T09:45:26Z</time>
      </trkpt>
      <trkpt lat="43.78461" lon="6.80418">
        <ele>1334.08</ele>
        <time>2013-05-26T09:45:38Z</time>
      </trkpt>
      <trkpt lat="43.7846" lon="6.80403">
        <ele>1334.26</ele>
        <time>2013-05-26T09:45:44Z</time>
      </trkpt>
      <trkpt lat="43.78456" lon="6.8039">
        <ele>1333.96</ele>
        <time>2013-05-26T09:46:03Z</time>
      </trkpt>
      <trkpt lat="43.78457" lon="6.80374">
        <ele>1333.45</ele>
        <time>2013-05-26T09:46:12Z</time>
      </trkpt>
      <trkpt lat="43.78461" lon="6.80363">
        <ele>1333.09</ele>
        <time>2013-05-26T09:46:36Z</time>
      </trkpt>
      <trkpt lat="43.78459" lon="6.80347">
        <ele>1331.81</ele>
        <time>2013-05-26T09:46:59Z</time>
      </trkpt>
      <trkpt lat="43.78458" lon="6.80332">
        <ele>1331.35</ele>
        <time>2013-05-26T09:47:08Z</time>
      </trkpt>
      <trkpt lat="43.78455" lon="6.80315">
        <ele>1331.31</ele>
        <time>2013-05-26T09:47:20Z</time>
      </trkpt>
      <trkpt lat="43.78446" lon="6.80291">
        <ele>1332.52</ele>
        <time>2013-05-26T09:47:41Z</time>
      </trkpt>
      <trkpt lat="43.78446" lon="6.80273">
        <ele>1334.53</ele>
        <time>2013-05-26T09:47:51Z</time>
      </trkpt>
      <trkpt lat="43.78448" lon="6.80248">
        <ele>1336.99</ele>
        <time>2013-05-26T09:48:08Z</time>
      </trkpt>
      <trkpt lat="43.78452" lon="6.80233">
        <ele>1337.98</ele>
        <time>2013-05-26T09:48:20Z</time>
      </trkpt>
      <trkpt lat="43.78454" lon="6.80215">
        <ele>1338.55</ele>
        <time>2013-05-26T09:48:31Z</time>
      </trkpt>
      <trkpt lat="43.7846" lon="6.802">
        <ele>1338.75</ele>
        <time>2013-05-26T09:48:44Z</time>
      </trkpt>
      <trkpt lat="43.78463" lon="6.80184">
        <ele>1338.93</ele>
        <time>2013-05-26T09:48:54Z</time>
      </trkpt>
      <trkpt lat="43.78463" lon="6.80168">
        <ele>1338.97</ele>
        <time>2013-05-26T09:49:08Z</time>
      </trkpt>
      <trkpt lat="43.78463" lon="6.80148">
        <ele>1338.94</ele>
        <time>2013-05-26T09:49:22Z</time>
      </trkpt>
      <trkpt lat="43.78461" lon="6.80133">
        <ele>1338.98</ele>
        <time>2013-05-26T09:49:31Z</time>
      </trkpt>
      <trkpt lat="43.78459" lon="6.80121">
        <ele>1338.88</ele>
        <time>2013-05-26T09:49:41Z</time>
      </trkpt>
      <trkpt lat="43.78456" lon="6.80104">
        <ele>1338.81</ele>
        <time>2013-05-26T09:49:52Z</time>
      </trkpt>
      <trkpt lat="43.78453" lon="6.80089">
        <ele>1339.11</ele>
        <time>2013-05-26T09:50:03Z</time>
      </trkpt>
      <trkpt lat="43.78451" lon="6.80072">
        <ele>1339.97</ele>
        <time>2013-05-26T09:50:17Z</time>
      </trkpt>
      <trkpt lat="43.78446" lon="6.8006">
        <ele>1340.64</ele>
        <time>2013-05-26T09:50:26Z</time>
      </trkpt>
      <trkpt lat="43.78443" lon="6.80047">
        <ele>1341.02</ele>
        <time>2013-05-26T09:50:34Z</time>
      </trkpt>
      <trkpt lat="43.78439" lon="6.80034">
        <ele>1341.61</ele>
        <time>2013-05-26T09:50:45Z</time>
      </trkpt>
      <trkpt lat="43.78433" lon="6.8002">
        <ele>1342.08</ele>
        <time>2013-05-26T09:50:56Z</time>
      </trkpt>
      <trkpt lat="43.78429" lon="6.80009">
        <ele>1342.82</ele>
        <time>2013-05-26T09:51:09Z</time>
      </trkpt>
      <trkpt lat="43.78424" lon="6.79994">
        <ele>1343.86</ele>
        <time>2013-05-26T09:51:21Z</time>
      </trkpt>
      <trkpt lat="43.78414" lon="6.79989">
        <ele>1344.41</ele>
        <time>2013-05-26T09:51:34Z</time>
      </trkpt>
      <trkpt lat="43.78407" lon="6.79982">
        <ele>1345.19</ele>
        <time>2013-05-26T09:51:48Z</time>
      </trkpt>
      <trkpt lat="43.78403" lon="6.79966">
        <ele>1345.33</ele>
        <time>2013-05-26T09:52:24Z</time>
      </trkpt>
      <trkpt lat="43.78402" lon="6.79952">
        <ele>1345.81</ele>
        <time>2013-05-26T09:52:33Z</time>
      </trkpt>
      <trkpt lat="43.78402" lon="6.79939">
        <ele>1345.82</ele>
        <time>2013-05-26T09:52:42Z</time>
      </trkpt>
      <trkpt lat="43.78406" lon="6.79926">
        <ele>1345.78</ele>
        <time>2013-05-26T09:52:54Z</time>
      </trkpt>
      <trkpt lat="43.78404" lon="6.79913">
        <ele>1346.07</ele>
        <time>2013-05-26T09:53:09Z</time>
      </trkpt>
      <trkpt lat="43.78395" lon="6.79912">
        <ele>1346.8</ele>
        <time>2013-05-26T09:53:24Z</time>
      </trkpt>
      <trkpt lat="43.78386" lon="6.79917">
        <ele>1350.87</ele>
        <time>2013-05-26T09:53:53Z</time>
      </trkpt>
      <trkpt lat="43.78378" lon="6.79908">
        <ele>1353.39</ele>
        <time>2013-05-26T09:54:14Z</time>
      </trkpt>
      <trkpt lat="43.78367" lon="6.79906">
        <ele>1354.42</ele>
        <time>2013-05-26T09:54:32Z</time>
      </trkpt>
      <trkpt lat="43.78358" lon="6.79913">
        <ele>1355.31</ele>
        <time>2013-05-26T09:54:44Z</time>
      </trkpt>
      <trkpt lat="43.7835" lon="6.79919">
        <ele>1356.72</ele>
        <time>2013-05-26T09:54:59Z</time>
      </trkpt>
      <trkpt lat="43.78341" lon="6.79921">
        <ele>1357.96</ele>
        <time>2013-05-26T09:55:14Z</time>
      </trkpt>
      <trkpt lat="43.78331" lon="6.79928">
        <ele>1358.86</ele>
        <time>2013-05-26T09:55:26Z</time>
      </trkpt>
      <trkpt lat="43.78322" lon="6.79926">
        <ele>1359.34</ele>
        <time>2013-05-26T09:55:38Z</time>
      </trkpt>
      <trkpt lat="43.78312" lon="6.7992">
        <ele>1359.9</ele>
        <time>2013-05-26T09:55:53Z</time>
      </trkpt>
      <trkpt lat="43.78293" lon="6.79936">
        <ele>1361</ele>
        <time>2013-05-26T09:56:13Z</time>
      </trkpt>
      <trkpt lat="43.78294" lon="6.79909">
        <ele>1362.27</ele>
        <time>2013-05-26T09:56:19Z</time>
      </trkpt>
      <trkpt lat="43.78284" lon="6.79913">
        <ele>1365.8</ele>
        <time>2013-05-26T09:56:38Z</time>
      </trkpt>
      <trkpt lat="43.78272" lon="6.79912">
        <ele>1368.91</ele>
        <time>2013-05-26T09:57:02Z</time>
      </trkpt>
      <trkpt lat="43.78262" lon="6.79905">
        <ele>1370.41</ele>
        <time>2013-05-26T09:57:21Z</time>
      </trkpt>
      <trkpt lat="43.78252" lon="6.79907">
        <ele>1371.44</ele>
        <time>2013-05-26T09:57:38Z</time>
      </trkpt>
      <trkpt lat="43.7824" lon="6.79903">
        <ele>1373.52</ele>
        <time>2013-05-26T09:57:56Z</time>
      </trkpt>
      <trkpt lat="43.78231" lon="6.79896">
        <ele>1375.53</ele>
        <time>2013-05-26T09:58:12Z</time>
      </trkpt>
      <trkpt lat="43.78221" lon="6.79889">
        <ele>1377.26</ele>
        <time>2013-05-26T09:58:32Z</time>
      </trkpt>
      <trkpt lat="43.7821" lon="6.79882">
        <ele>1378.55</ele>
        <time>2013-05-26T09:58:47Z</time>
      </trkpt>
      <trkpt lat="43.78201" lon="6.79878">
        <ele>1379.43</ele>
        <time>2013-05-26T09:58:57Z</time>
      </trkpt>
      <trkpt lat="43.78191" lon="6.79872">
        <ele>1381.35</ele>
        <time>2013-05-26T09:59:12Z</time>
      </trkpt>
      <trkpt lat="43.78181" lon="6.79869">
        <ele>1383.14</ele>
        <time>2013-05-26T09:59:24Z</time>
      </trkpt>
      <trkpt lat="43.78173" lon="6.79864">
        <ele>1386.09</ele>
        <time>2013-05-26T09:59:37Z</time>
      </trkpt>
      <trkpt lat="43.78161" lon="6.79861">
        <ele>1389.96</ele>
        <time>2013-05-26T09:59:58Z</time>
      </trkpt>
      <trkpt lat="43.7815" lon="6.79861">
        <ele>1393.47</ele>
        <time>2013-05-26T10:01:07Z</time>
      </trkpt>
      <trkpt lat="43.78141" lon="6.79861">
        <ele>1395.87</ele>
        <time>2013-05-26T10:01:25Z</time>
      </trkpt>
      <trkpt lat="43.7813" lon="6.79861">
        <ele>1398.32</ele>
        <time>2013-05-26T10:01:43Z</time>
      </trkpt>
      <trkpt lat="43.78121" lon="6.79861">
        <ele>1400.82</ele>
        <time>2013-05-26T10:02:23Z</time>
      </trkpt>
      <trkpt lat="43.78112" lon="6.79867">
        <ele>1402.9</ele>
        <time>2013-05-26T10:03:20Z</time>
      </trkpt>
      <trkpt lat="43.78101" lon="6.7987">
        <ele>1403.49</ele>
        <time>2013-05-26T10:03:29Z</time>
      </trkpt>
      <trkpt lat="43.78091" lon="6.79875">
        <ele>1405.3</ele>
        <time>2013-05-26T10:03:44Z</time>
      </trkpt>
      <trkpt lat="43.78084" lon="6.79885">
        <ele>1407.76</ele>
        <time>2013-05-26T10:04:05Z</time>
      </trkpt>
      <trkpt lat="43.78071" lon="6.79878">
        <ele>1409.7</ele>
        <time>2013-05-26T10:04:24Z</time>
      </trkpt>
      <trkpt lat="43.7806" lon="6.79886">
        <ele>1412.75</ele>
        <time>2013-05-26T10:04:41Z</time>
      </trkpt>
      <trkpt lat="43.78058" lon="6.79872">
        <ele>1420.87</ele>
        <time>2013-05-26T10:05:21Z</time>
      </trkpt>
      <trkpt lat="43.78051" lon="6.79862">
        <ele>1422.88</ele>
        <time>2013-05-26T10:05:36Z</time>
      </trkpt>
      <trkpt lat="43.78041" lon="6.79857">
        <ele>1424.87</ele>
        <time>2013-05-26T10:05:54Z</time>
      </trkpt>
      <trkpt lat="43.78034" lon="6.7985">
        <ele>1426.14</ele>
        <time>2013-05-26T10:06:09Z</time>
      </trkpt>
      <trkpt lat="43.78023" lon="6.79849">
        <ele>1427.63</ele>
        <time>2013-05-26T10:06:30Z</time>
      </trkpt>
      <trkpt lat="43.78012" lon="6.79848">
        <ele>1429.41</ele>
        <time>2013-05-26T10:06:48Z</time>
      </trkpt>
      <trkpt lat="43.78" lon="6.79848">
        <ele>1430.96</ele>
        <time>2013-05-26T10:07:03Z</time>
      </trkpt>
      <trkpt lat="43.77983" lon="6.79834">
        <ele>1432.02</ele>
        <time>2013-05-26T10:07:24Z</time>
      </trkpt>
      <trkpt lat="43.77981" lon="6.7982">
        <ele>1437.86</ele>
        <time>2013-05-26T10:09:00Z</time>
      </trkpt>
      <trkpt lat="43.77991" lon="6.79819">
        <ele>1439.87</ele>
        <time>2013-05-26T10:10:03Z</time>
      </trkpt>
      <trkpt lat="43.77995" lon="6.79832">
        <ele>1440.6</ele>
        <time>2013-05-26T10:10:12Z</time>
      </trkpt>
      <trkpt lat="43.78" lon="6.79843">
        <ele>1442.25</ele>
        <time>2013-05-26T10:10:31Z</time>
      </trkpt>
      <trkpt lat="43.78007" lon="6.79851">
        <ele>1442.34</ele>
        <time>2013-05-26T10:11:04Z</time>
      </trkpt>
      <trkpt lat="43.78012" lon="6.79866">
        <ele>1441.33</ele>
        <time>2013-05-26T10:11:19Z</time>
      </trkpt>
      <trkpt lat="43.78008" lon="6.79878">
        <ele>1440.16</ele>
        <time>2013-05-26T10:11:37Z</time>
      </trkpt>
      <trkpt lat="43.78006" lon="6.79892">
        <ele>1439.32</ele>
        <time>2013-05-26T10:12:06Z</time>
      </trkpt>
      <trkpt lat="43.78011" lon="6.79902">
        <ele>1437.48</ele>
        <time>2013-05-26T10:12:38Z</time>
      </trkpt>
      <trkpt lat="43.78021" lon="6.79903">
        <ele>1436.88</ele>
        <time>2013-05-26T10:12:53Z</time>
      </trkpt>
      <trkpt lat="43.78029" lon="6.7991">
        <ele>1436.25</ele>
        <time>2013-05-26T10:13:08Z</time>
      </trkpt>
      <trkpt lat="43.78033" lon="6.79925">
        <ele>1434.36</ele>
        <time>2013-05-26T10:14:20Z</time>
      </trkpt>
      <trkpt lat="43.78038" lon="6.79935">
        <ele>1434.14</ele>
        <time>2013-05-26T10:14:44Z</time>
      </trkpt>
      <trkpt lat="43.78046" lon="6.79945">
        <ele>1434.2</ele>
        <time>2013-05-26T10:14:56Z</time>
      </trkpt>
      <trkpt lat="43.78055" lon="6.79953">
        <ele>1434.37</ele>
        <time>2013-05-26T10:15:11Z</time>
      </trkpt>
      <trkpt lat="43.7806" lon="6.79966">
        <ele>1433.97</ele>
        <time>2013-05-26T10:15:26Z</time>
      </trkpt>
      <trkpt lat="43.78058" lon="6.79978">
        <ele>1434.02</ele>
        <time>2013-05-26T10:15:41Z</time>
      </trkpt>
      <trkpt lat="43.78062" lon="6.79991">
        <ele>1435.21</ele>
        <time>2013-05-26T10:15:59Z</time>
      </trkpt>
      <trkpt lat="43.78066" lon="6.80003">
        <ele>1435.99</ele>
        <time>2013-05-26T10:16:17Z</time>
      </trkpt>
      <trkpt lat="43.78077" lon="6.80006">
        <ele>1437.18</ele>
        <time>2013-05-26T10:16:59Z</time>
      </trkpt>
      <trkpt lat="43.78086" lon="6.80003">
        <ele>1438.21</ele>
        <time>2013-05-26T10:17:41Z</time>
      </trkpt>
      <trkpt lat="43.78077" lon="6.79999">
        <ele>1438.97</ele>
        <time>2013-05-26T10:22:21Z</time>
      </trkpt>
      <trkpt lat="43.78082" lon="6.8001">
        <ele>1438.71</ele>
        <time>2013-05-26T10:22:48Z</time>
      </trkpt>
      <trkpt lat="43.78088" lon="6.80023">
        <ele>1439.21</ele>
        <time>2013-05-26T10:23:00Z</time>
      </trkpt>
      <trkpt lat="43.78094" lon="6.80037">
        <ele>1439.95</ele>
        <time>2013-05-26T10:23:12Z</time>
      </trkpt>
      <trkpt lat="43.78098" lon="6.80049">
        <ele>1440.45</ele>
        <time>2013-05-26T10:23:21Z</time>
      </trkpt>
      <trkpt lat="43.78097" lon="6.80061">
        <ele>1441.31</ele>
        <time>2013-05-26T10:23:36Z</time>
      </trkpt>
      <trkpt lat="43.7809" lon="6.8007">
        <ele>1442.22</ele>
        <time>2013-05-26T10:23:54Z</time>
      </trkpt>
      <trkpt lat="43.78085" lon="6.80081">
        <ele>1442.55</ele>
        <time>2013-05-26T10:24:06Z</time>
      </trkpt>
      <trkpt lat="43.78076" lon="6.80091">
        <ele>1442.6</ele>
        <time>2013-05-26T10:24:12Z</time>
      </trkpt>
      <trkpt lat="43.78068" lon="6.80102">
        <ele>1442.41</ele>
        <time>2013-05-26T10:24:26Z</time>
      </trkpt>
      <trkpt lat="43.78062" lon="6.80112">
        <ele>1441.85</ele>
        <time>2013-05-26T10:24:35Z</time>
      </trkpt>
      <trkpt lat="43.78064" lon="6.80124">
        <ele>1441.91</ele>
        <time>2013-05-26T10:24:47Z</time>
      </trkpt>
      <trkpt lat="43.78069" lon="6.80138">
        <ele>1442.79</ele>
        <time>2013-05-26T10:24:59Z</time>
      </trkpt>
      <trkpt lat="43.78077" lon="6.80147">
        <ele>1445.07</ele>
        <time>2013-05-26T10:25:26Z</time>
      </trkpt>
      <trkpt lat="43.78085" lon="6.80153">
        <ele>1447.49</ele>
        <time>2013-05-26T10:25:53Z</time>
      </trkpt>
      <trkpt lat="43.78095" lon="6.80156">
        <ele>1453.4</ele>
        <time>2013-05-26T10:28:39Z</time>
      </trkpt>
      <trkpt lat="43.78086" lon="6.8015">
        <ele>1455.15</ele>
        <time>2013-05-26T10:29:24Z</time>
      </trkpt>
      <trkpt lat="43.7808" lon="6.8014">
        <ele>1456.08</ele>
        <time>2013-05-26T10:29:39Z</time>
      </trkpt>
      <trkpt lat="43.78075" lon="6.80129">
        <ele>1456.65</ele>
        <time>2013-05-26T10:29:54Z</time>
      </trkpt>
      <trkpt lat="43.78068" lon="6.80121">
        <ele>1456.36</ele>
        <time>2013-05-26T10:31:03Z</time>
      </trkpt>
      <trkpt lat="43.78073" lon="6.8011">
        <ele>1455.95</ele>
        <time>2013-05-26T10:31:57Z</time>
      </trkpt>
      <trkpt lat="43.7808" lon="6.80096">
        <ele>1455.89</ele>
        <time>2013-05-26T10:32:09Z</time>
      </trkpt>
      <trkpt lat="43.78088" lon="6.80085">
        <ele>1456.33</ele>
        <time>2013-05-26T10:32:21Z</time>
      </trkpt>
      <trkpt lat="43.78086" lon="6.80069">
        <ele>1455.59</ele>
        <time>2013-05-26T10:33:36Z</time>
      </trkpt>
      <trkpt lat="43.78083" lon="6.80001">
        <ele>1454.53</ele>
        <time>2013-05-26T10:34:45Z</time>
      </trkpt>
      <trkpt lat="43.78074" lon="6.79997">
        <ele>1450.31</ele>
        <time>2013-05-26T10:37:33Z</time>
      </trkpt>
      <trkpt lat="43.78068" lon="6.80006">
        <ele>1446.89</ele>
        <time>2013-05-26T10:39:00Z</time>
      </trkpt>
      <trkpt lat="43.78073" lon="6.79996">
        <ele>1443.98</ele>
        <time>2013-05-26T10:39:21Z</time>
      </trkpt>
      <trkpt lat="43.78065" lon="6.80005">
        <ele>1440.1</ele>
        <time>2013-05-26T10:41:06Z</time>
      </trkpt>
      <trkpt lat="43.78075" lon="6.80001">
        <ele>1440.34</ele>
        <time>2013-05-26T10:41:51Z</time>
      </trkpt>
      <trkpt lat="43.78087" lon="6.79999">
        <ele>1443.13</ele>
        <time>2013-05-26T10:44:18Z</time>
      </trkpt>
      <trkpt lat="43.78075" lon="6.79999">
        <ele>1445.58</ele>
        <time>2013-05-26T10:45:14Z</time>
      </trkpt>
      <trkpt lat="43.78061" lon="6.79993">
        <ele>1445.39</ele>
        <time>2013-05-26T10:45:20Z</time>
      </trkpt>
      <trkpt lat="43.78054" lon="6.79985">
        <ele>1444.96</ele>
        <time>2013-05-26T10:45:26Z</time>
      </trkpt>
      <trkpt lat="43.78063" lon="6.79995">
        <ele>1442.34</ele>
        <time>2013-05-26T10:47:08Z</time>
      </trkpt>
      <trkpt lat="43.78071" lon="6.80002">
        <ele>1443.18</ele>
        <time>2013-05-26T10:47:29Z</time>
      </trkpt>
      <trkpt lat="43.78081" lon="6.80002">
        <ele>1445.93</ele>
        <time>2013-05-26T10:48:20Z</time>
      </trkpt>
      <trkpt lat="43.7808" lon="6.80015">
        <ele>1452.74</ele>
        <time>2013-05-26T10:50:56Z</time>
      </trkpt>
      <trkpt lat="43.7809" lon="6.80012">
        <ele>1453.97</ele>
        <time>2013-05-26T10:51:53Z</time>
      </trkpt>
      <trkpt lat="43.78088" lon="6.8">
        <ele>1451.76</ele>
        <time>2013-05-26T10:53:31Z</time>
      </trkpt>
      <trkpt lat="43.78086" lon="6.80004">
        <ele>1434.84</ele>
        <time>2013-05-26T10:58:51Z</time>
      </trkpt>
      <trkpt lat="43.7808" lon="6.79994">
        <ele>1435.36</ele>
        <time>2013-05-26T11:00:45Z</time>
      </trkpt>
      <trkpt lat="43.78078" lon="6.80008">
        <ele>1438.23</ele>
        <time>2013-05-26T11:03:10Z</time>
      </trkpt>
      <trkpt lat="43.78087" lon="6.80003">
        <ele>1440.23</ele>
        <time>2013-05-26T11:03:49Z</time>
      </trkpt>
      <trkpt lat="43.78079" lon="6.80012">
        <ele>1437.63</ele>
        <time>2013-05-26T11:05:01Z</time>
      </trkpt>
      <trkpt lat="43.78086" lon="6.80004">
        <ele>1438.62</ele>
        <time>2013-05-26T11:05:49Z</time>
      </trkpt>
      <trkpt lat="43.7808" lon="6.79993">
        <ele>1439.03</ele>
        <time>2013-05-26T11:07:01Z</time>
      </trkpt>
      <trkpt lat="43.78087" lon="6.80002">
        <ele>1438.99</ele>
        <time>2013-05-26T11:08:49Z</time>
      </trkpt>
      <trkpt lat="43.78083" lon="6.79998">
        <ele>1439.5</ele>
        <time>2013-05-26T11:12:03Z</time>
      </trkpt>
      <trkpt lat="43.78048" lon="6.79941">
        <ele>1445.13</ele>
        <time>2013-05-26T11:15:42Z</time>
      </trkpt>
      <trkpt lat="43.78041" lon="6.79928">
        <ele>1446.92</ele>
        <time>2013-05-26T11:15:45Z</time>
      </trkpt>
      <trkpt lat="43.78032" lon="6.7993">
        <ele>1448.23</ele>
        <time>2013-05-26T11:15:48Z</time>
      </trkpt>
      <trkpt lat="43.78022" lon="6.79926">
        <ele>1451.3</ele>
        <time>2013-05-26T11:16:12Z</time>
      </trkpt>
      <trkpt lat="43.78026" lon="6.79938">
        <ele>1450.64</ele>
        <time>2013-05-26T11:16:33Z</time>
      </trkpt>
      <trkpt lat="43.78022" lon="6.79909">
        <ele>1449.85</ele>
        <time>2013-05-26T11:17:00Z</time>
      </trkpt>
      <trkpt lat="43.78031" lon="6.79906">
        <ele>1449.15</ele>
        <time>2013-05-26T11:17:15Z</time>
      </trkpt>
      <trkpt lat="43.78037" lon="6.79894">
        <ele>1445.48</ele>
        <time>2013-05-26T11:17:49Z</time>
      </trkpt>
      <trkpt lat="43.78035" lon="6.79881">
        <ele>1444.09</ele>
        <time>2013-05-26T11:18:01Z</time>
      </trkpt>
      <trkpt lat="43.78032" lon="6.79869">
        <ele>1442.85</ele>
        <time>2013-05-26T11:18:13Z</time>
      </trkpt>
      <trkpt lat="43.78031" lon="6.79857">
        <ele>1441.7</ele>
        <time>2013-05-26T11:18:22Z</time>
      </trkpt>
      <trkpt lat="43.78025" lon="6.79847">
        <ele>1439.73</ele>
        <time>2013-05-26T11:18:34Z</time>
      </trkpt>
      <trkpt lat="43.78015" lon="6.79839">
        <ele>1437.76</ele>
        <time>2013-05-26T11:18:49Z</time>
      </trkpt>
      <trkpt lat="43.78009" lon="6.7983">
        <ele>1437.38</ele>
        <time>2013-05-26T11:19:01Z</time>
      </trkpt>
      <trkpt lat="43.78003" lon="6.79816">
        <ele>1436.95</ele>
        <time>2013-05-26T11:19:13Z</time>
      </trkpt>
      <trkpt lat="43.78" lon="6.79802">
        <ele>1436.56</ele>
        <time>2013-05-26T11:19:28Z</time>
      </trkpt>
      <trkpt lat="43.77999" lon="6.79789">
        <ele>1436.72</ele>
        <time>2013-05-26T11:19:43Z</time>
      </trkpt>
      <trkpt lat="43.77992" lon="6.79778">
        <ele>1437.4</ele>
        <time>2013-05-26T11:19:58Z</time>
      </trkpt>
      <trkpt lat="43.77989" lon="6.79764">
        <ele>1438.36</ele>
        <time>2013-05-26T11:20:13Z</time>
      </trkpt>
      <trkpt lat="43.77993" lon="6.7975">
        <ele>1442.58</ele>
        <time>2013-05-26T11:21:12Z</time>
      </trkpt>
      <trkpt lat="43.77995" lon="6.79735">
        <ele>1442.7</ele>
        <time>2013-05-26T11:21:21Z</time>
      </trkpt>
      <trkpt lat="43.7799" lon="6.79723">
        <ele>1443.36</ele>
        <time>2013-05-26T11:21:48Z</time>
      </trkpt>
      <trkpt lat="43.77991" lon="6.7971">
        <ele>1443.73</ele>
        <time>2013-05-26T11:22:00Z</time>
      </trkpt>
      <trkpt lat="43.77993" lon="6.79698">
        <ele>1445.96</ele>
        <time>2013-05-26T11:22:12Z</time>
      </trkpt>
      <trkpt lat="43.77997" lon="6.79682">
        <ele>1447.62</ele>
        <time>2013-05-26T11:22:30Z</time>
      </trkpt>
      <trkpt lat="43.77998" lon="6.79696">
        <ele>1446.75</ele>
        <time>2013-05-26T11:22:57Z</time>
      </trkpt>
      <trkpt lat="43.77997" lon="6.79709">
        <ele>1445.74</ele>
        <time>2013-05-26T11:23:15Z</time>
      </trkpt>
      <trkpt lat="43.77997" lon="6.79723">
        <ele>1445.48</ele>
        <time>2013-05-26T11:23:30Z</time>
      </trkpt>
      <trkpt lat="43.78" lon="6.7974">
        <ele>1445.45</ele>
        <time>2013-05-26T11:23:42Z</time>
      </trkpt>
      <trkpt lat="43.78007" lon="6.79752">
        <ele>1445.24</ele>
        <time>2013-05-26T11:24:00Z</time>
      </trkpt>
      <trkpt lat="43.78015" lon="6.79743">
        <ele>1443.54</ele>
        <time>2013-05-26T11:24:21Z</time>
      </trkpt>
      <trkpt lat="43.78025" lon="6.79739">
        <ele>1441.12</ele>
        <time>2013-05-26T11:24:36Z</time>
      </trkpt>
      <trkpt lat="43.78034" lon="6.79739">
        <ele>1439.21</ele>
        <time>2013-05-26T11:25:00Z</time>
      </trkpt>
      <trkpt lat="43.78038" lon="6.79726">
        <ele>1440.02</ele>
        <time>2013-05-26T11:25:14Z</time>
      </trkpt>
      <trkpt lat="43.78036" lon="6.79714">
        <ele>1440.96</ele>
        <time>2013-05-26T11:25:23Z</time>
      </trkpt>
      <trkpt lat="43.78035" lon="6.79698">
        <ele>1441.79</ele>
        <time>2013-05-26T11:25:35Z</time>
      </trkpt>
      <trkpt lat="43.78035" lon="6.79685">
        <ele>1442.11</ele>
        <time>2013-05-26T11:25:47Z</time>
      </trkpt>
      <trkpt lat="43.78034" lon="6.79672">
        <ele>1442.28</ele>
        <time>2013-05-26T11:26:05Z</time>
      </trkpt>
      <trkpt lat="43.78033" lon="6.79659">
        <ele>1444.64</ele>
        <time>2013-05-26T11:26:35Z</time>
      </trkpt>
      <trkpt lat="43.7803" lon="6.79647">
        <ele>1445.45</ele>
        <time>2013-05-26T11:27:12Z</time>
      </trkpt>
      <trkpt lat="43.78041" lon="6.79605">
        <ele>1448.03</ele>
        <time>2013-05-26T11:28:02Z</time>
      </trkpt>
      <trkpt lat="43.78039" lon="6.79593">
        <ele>1447.75</ele>
        <time>2013-05-26T11:28:19Z</time>
      </trkpt>
      <trkpt lat="43.78037" lon="6.79578">
        <ele>1447.56</ele>
        <time>2013-05-26T11:28:57Z</time>
      </trkpt>
      <trkpt lat="43.78033" lon="6.79564">
        <ele>1447.69</ele>
        <time>2013-05-26T11:29:12Z</time>
      </trkpt>
      <trkpt lat="43.78027" lon="6.79552">
        <ele>1447.94</ele>
        <time>2013-05-26T11:29:24Z</time>
      </trkpt>
      <trkpt lat="43.78023" lon="6.79539">
        <ele>1448.02</ele>
        <time>2013-05-26T11:29:42Z</time>
      </trkpt>
      <trkpt lat="43.78019" lon="6.79526">
        <ele>1447.94</ele>
        <time>2013-05-26T11:29:51Z</time>
      </trkpt>
      <trkpt lat="43.78029" lon="6.7952">
        <ele>1448.74</ele>
        <time>2013-05-26T11:30:45Z</time>
      </trkpt>
      <trkpt lat="43.78036" lon="6.79511">
        <ele>1449.51</ele>
        <time>2013-05-26T11:32:13Z</time>
      </trkpt>
      <trkpt lat="43.7804" lon="6.795">
        <ele>1450.02</ele>
        <time>2013-05-26T11:32:53Z</time>
      </trkpt>
      <trkpt lat="43.78047" lon="6.79492">
        <ele>1451.42</ele>
        <time>2013-05-26T11:33:50Z</time>
      </trkpt>
      <trkpt lat="43.78054" lon="6.79483">
        <ele>1452.57</ele>
        <time>2013-05-26T11:34:08Z</time>
      </trkpt>
      <trkpt lat="43.7806" lon="6.79471">
        <ele>1453.65</ele>
        <time>2013-05-26T11:34:23Z</time>
      </trkpt>
      <trkpt lat="43.78053" lon="6.79462">
        <ele>1454.35</ele>
        <time>2013-05-26T11:34:35Z</time>
      </trkpt>
      <trkpt lat="43.78063" lon="6.7946">
        <ele>1454.33</ele>
        <time>2013-05-26T11:34:56Z</time>
      </trkpt>
      <trkpt lat="43.78071" lon="6.79447">
        <ele>1453.19</ele>
        <time>2013-05-26T11:35:11Z</time>
      </trkpt>
      <trkpt lat="43.78079" lon="6.79437">
        <ele>1451.47</ele>
        <time>2013-05-26T11:35:23Z</time>
      </trkpt>
      <trkpt lat="43.78086" lon="6.79425">
        <ele>1451.12</ele>
        <time>2013-05-26T11:35:44Z</time>
      </trkpt>
      <trkpt lat="43.78086" lon="6.79412">
        <ele>1452.72</ele>
        <time>2013-05-26T11:35:59Z</time>
      </trkpt>
      <trkpt lat="43.78086" lon="6.79398">
        <ele>1453.45</ele>
        <time>2013-05-26T11:36:11Z</time>
      </trkpt>
      <trkpt lat="43.78087" lon="6.79382">
        <ele>1455.42</ele>
        <time>2013-05-26T11:36:35Z</time>
      </trkpt>
      <trkpt lat="43.78089" lon="6.79365">
        <ele>1457.08</ele>
        <time>2013-05-26T11:36:50Z</time>
      </trkpt>
      <trkpt lat="43.78091" lon="6.7935">
        <ele>1457.93</ele>
        <time>2013-05-26T11:37:05Z</time>
      </trkpt>
      <trkpt lat="43.78097" lon="6.79336">
        <ele>1457.87</ele>
        <time>2013-05-26T11:37:17Z</time>
      </trkpt>
      <trkpt lat="43.78103" lon="6.79325">
        <ele>1457.73</ele>
        <time>2013-05-26T11:37:26Z</time>
      </trkpt>
      <trkpt lat="43.78109" lon="6.79316">
        <ele>1458.23</ele>
        <time>2013-05-26T11:37:35Z</time>
      </trkpt>
      <trkpt lat="43.78117" lon="6.79306">
        <ele>1459.79</ele>
        <time>2013-05-26T11:37:50Z</time>
      </trkpt>
      <trkpt lat="43.78125" lon="6.79297">
        <ele>1460.6</ele>
        <time>2013-05-26T11:38:02Z</time>
      </trkpt>
      <trkpt lat="43.78127" lon="6.79285">
        <ele>1460.36</ele>
        <time>2013-05-26T11:39:20Z</time>
      </trkpt>
      <trkpt lat="43.78133" lon="6.79273">
        <ele>1458.75</ele>
        <time>2013-05-26T11:39:35Z</time>
      </trkpt>
      <trkpt lat="43.7814" lon="6.79263">
        <ele>1457</ele>
        <time>2013-05-26T11:39:47Z</time>
      </trkpt>
      <trkpt lat="43.78143" lon="6.7925">
        <ele>1454.17</ele>
        <time>2013-05-26T11:40:02Z</time>
      </trkpt>
      <trkpt lat="43.78151" lon="6.7924">
        <ele>1452.86</ele>
        <time>2013-05-26T11:40:14Z</time>
      </trkpt>
      <trkpt lat="43.78155" lon="6.79226">
        <ele>1452.71</ele>
        <time>2013-05-26T11:40:23Z</time>
      </trkpt>
      <trkpt lat="43.78155" lon="6.79213">
        <ele>1452.48</ele>
        <time>2013-05-26T11:40:35Z</time>
      </trkpt>
      <trkpt lat="43.78157" lon="6.79198">
        <ele>1453.16</ele>
        <time>2013-05-26T11:40:50Z</time>
      </trkpt>
      <trkpt lat="43.78156" lon="6.79184">
        <ele>1454.89</ele>
        <time>2013-05-26T11:41:05Z</time>
      </trkpt>
      <trkpt lat="43.78157" lon="6.7917">
        <ele>1456.82</ele>
        <time>2013-05-26T11:41:20Z</time>
      </trkpt>
      <trkpt lat="43.78161" lon="6.79158">
        <ele>1458</ele>
        <time>2013-05-26T11:41:32Z</time>
      </trkpt>
      <trkpt lat="43.78169" lon="6.7915">
        <ele>1459.29</ele>
        <time>2013-05-26T11:41:47Z</time>
      </trkpt>
      <trkpt lat="43.78179" lon="6.79145">
        <ele>1461.69</ele>
        <time>2013-05-26T11:43:15Z</time>
      </trkpt>
      <trkpt lat="43.78188" lon="6.79141">
        <ele>1459.6</ele>
        <time>2013-05-26T11:43:42Z</time>
      </trkpt>
      <trkpt lat="43.78181" lon="6.79133">
        <ele>1459.31</ele>
        <time>2013-05-26T11:44:09Z</time>
      </trkpt>
      <trkpt lat="43.78189" lon="6.79124">
        <ele>1463.62</ele>
        <time>2013-05-26T11:44:57Z</time>
      </trkpt>
      <trkpt lat="43.78195" lon="6.79113">
        <ele>1464.99</ele>
        <time>2013-05-26T11:45:30Z</time>
      </trkpt>
      <trkpt lat="43.78204" lon="6.79105">
        <ele>1464.05</ele>
        <time>2013-05-26T11:46:01Z</time>
      </trkpt>
      <trkpt lat="43.78213" lon="6.79099">
        <ele>1463.82</ele>
        <time>2013-05-26T11:46:25Z</time>
      </trkpt>
      <trkpt lat="43.78219" lon="6.79089">
        <ele>1471.2</ele>
        <time>2013-05-26T11:47:19Z</time>
      </trkpt>
      <trkpt lat="43.78222" lon="6.79077">
        <ele>1474.48</ele>
        <time>2013-05-26T11:47:37Z</time>
      </trkpt>
      <trkpt lat="43.78229" lon="6.79065">
        <ele>1478.41</ele>
        <time>2013-05-26T11:48:08Z</time>
      </trkpt>
      <trkpt lat="43.78239" lon="6.79066">
        <ele>1480.85</ele>
        <time>2013-05-26T11:48:23Z</time>
      </trkpt>
      <trkpt lat="43.7824" lon="6.79051">
        <ele>1485.22</ele>
        <time>2013-05-26T11:50:25Z</time>
      </trkpt>
      <trkpt lat="43.78239" lon="6.79039">
        <ele>1484.35</ele>
        <time>2013-05-26T11:50:35Z</time>
      </trkpt>
      <trkpt lat="43.78237" lon="6.79026">
        <ele>1482.99</ele>
        <time>2013-05-26T11:50:47Z</time>
      </trkpt>
      <trkpt lat="43.78234" lon="6.79011">
        <ele>1482.47</ele>
        <time>2013-05-26T11:50:59Z</time>
      </trkpt>
      <trkpt lat="43.78231" lon="6.78997">
        <ele>1482.6</ele>
        <time>2013-05-26T11:51:14Z</time>
      </trkpt>
      <trkpt lat="43.7823" lon="6.78983">
        <ele>1483.02</ele>
        <time>2013-05-26T11:51:26Z</time>
      </trkpt>
      <trkpt lat="43.78222" lon="6.78972">
        <ele>1483.85</ele>
        <time>2013-05-26T11:51:44Z</time>
      </trkpt>
      <trkpt lat="43.78216" lon="6.7896">
        <ele>1484.4</ele>
        <time>2013-05-26T11:51:59Z</time>
      </trkpt>
      <trkpt lat="43.78212" lon="6.78948">
        <ele>1484.93</ele>
        <time>2013-05-26T11:52:17Z</time>
      </trkpt>
      <trkpt lat="43.7821" lon="6.78934">
        <ele>1485.09</ele>
        <time>2013-05-26T11:52:32Z</time>
      </trkpt>
      <trkpt lat="43.78205" lon="6.78923">
        <ele>1485.77</ele>
        <time>2013-05-26T11:52:47Z</time>
      </trkpt>
      <trkpt lat="43.78202" lon="6.78911">
        <ele>1487.27</ele>
        <time>2013-05-26T11:52:59Z</time>
      </trkpt>
      <trkpt lat="43.78197" lon="6.789">
        <ele>1488.74</ele>
        <time>2013-05-26T11:53:17Z</time>
      </trkpt>
      <trkpt lat="43.78194" lon="6.78887">
        <ele>1490.08</ele>
        <time>2013-05-26T11:53:32Z</time>
      </trkpt>
      <trkpt lat="43.78194" lon="6.78872">
        <ele>1492.04</ele>
        <time>2013-05-26T11:53:44Z</time>
      </trkpt>
      <trkpt lat="43.7819" lon="6.78861">
        <ele>1495.36</ele>
        <time>2013-05-26T11:54:02Z</time>
      </trkpt>
      <trkpt lat="43.78189" lon="6.78846">
        <ele>1497.46</ele>
        <time>2013-05-26T11:54:17Z</time>
      </trkpt>
      <trkpt lat="43.78192" lon="6.78834">
        <ele>1499.14</ele>
        <time>2013-05-26T11:54:32Z</time>
      </trkpt>
      <trkpt lat="43.78187" lon="6.78823">
        <ele>1501.14</ele>
        <time>2013-05-26T11:54:50Z</time>
      </trkpt>
      <trkpt lat="43.78181" lon="6.78814">
        <ele>1502.64</ele>
        <time>2013-05-26T11:55:05Z</time>
      </trkpt>
      <trkpt lat="43.78186" lon="6.78803">
        <ele>1504.17</ele>
        <time>2013-05-26T11:55:20Z</time>
      </trkpt>
      <trkpt lat="43.78183" lon="6.78789">
        <ele>1506.79</ele>
        <time>2013-05-26T11:55:41Z</time>
      </trkpt>
      <trkpt lat="43.78186" lon="6.78776">
        <ele>1509.89</ele>
        <time>2013-05-26T11:56:11Z</time>
      </trkpt>
      <trkpt lat="43.78185" lon="6.78763">
        <ele>1511.59</ele>
        <time>2013-05-26T11:56:32Z</time>
      </trkpt>
      <trkpt lat="43.7818" lon="6.78752">
        <ele>1513.48</ele>
        <time>2013-05-26T11:57:02Z</time>
      </trkpt>
      <trkpt lat="43.78177" lon="6.7874">
        <ele>1515.06</ele>
        <time>2013-05-26T11:57:23Z</time>
      </trkpt>
      <trkpt lat="43.7818" lon="6.78727">
        <ele>1517.48</ele>
        <time>2013-05-26T11:57:47Z</time>
      </trkpt>
      <trkpt lat="43.78186" lon="6.78716">
        <ele>1521.12</ele>
        <time>2013-05-26T11:58:26Z</time>
      </trkpt>
      <trkpt lat="43.78201" lon="6.7871">
        <ele>1532.13</ele>
        <time>2013-05-26T12:02:34Z</time>
      </trkpt>
      <trkpt lat="43.78193" lon="6.78703">
        <ele>1535.9</ele>
        <time>2013-05-26T12:08:51Z</time>
      </trkpt>
      <trkpt lat="43.78184" lon="6.7871">
        <ele>1535.88</ele>
        <time>2013-05-26T12:09:12Z</time>
      </trkpt>
      <trkpt lat="43.78181" lon="6.78694">
        <ele>1536.22</ele>
        <time>2013-05-26T12:09:30Z</time>
      </trkpt>
      <trkpt lat="43.78191" lon="6.78701">
        <ele>1538.21</ele>
        <time>2013-05-26T12:10:42Z</time>
      </trkpt>
      <trkpt lat="43.78197" lon="6.78712">
        <ele>1539.24</ele>
        <time>2013-05-26T12:18:50Z</time>
      </trkpt>
      <trkpt lat="43.78205" lon="6.78717">
        <ele>1537.29</ele>
        <time>2013-05-26T12:21:50Z</time>
      </trkpt>
      <trkpt lat="43.78211" lon="6.78727">
        <ele>1536.74</ele>
        <time>2013-05-26T12:22:47Z</time>
      </trkpt>
      <trkpt lat="43.7822" lon="6.78736">
        <ele>1535.31</ele>
        <time>2013-05-26T12:23:05Z</time>
      </trkpt>
      <trkpt lat="43.7823" lon="6.78742">
        <ele>1533.84</ele>
        <time>2013-05-26T12:23:20Z</time>
      </trkpt>
      <trkpt lat="43.78237" lon="6.78751">
        <ele>1532.88</ele>
        <time>2013-05-26T12:23:38Z</time>
      </trkpt>
      <trkpt lat="43.78246" lon="6.78762">
        <ele>1533.5</ele>
        <time>2013-05-26T12:24:41Z</time>
      </trkpt>
      <trkpt lat="43.78252" lon="6.78773">
        <ele>1534.35</ele>
        <time>2013-05-26T12:24:56Z</time>
      </trkpt>
      <trkpt lat="43.78256" lon="6.78784">
        <ele>1533.91</ele>
        <time>2013-05-26T12:25:14Z</time>
      </trkpt>
      <trkpt lat="43.78264" lon="6.78797">
        <ele>1532.63</ele>
        <time>2013-05-26T12:25:26Z</time>
      </trkpt>
      <trkpt lat="43.78273" lon="6.78806">
        <ele>1531.5</ele>
        <time>2013-05-26T12:25:38Z</time>
      </trkpt>
      <trkpt lat="43.78282" lon="6.78812">
        <ele>1531.01</ele>
        <time>2013-05-26T12:25:50Z</time>
      </trkpt>
      <trkpt lat="43.78286" lon="6.78825">
        <ele>1530.89</ele>
        <time>2013-05-26T12:26:02Z</time>
      </trkpt>
      <trkpt lat="43.78288" lon="6.78838">
        <ele>1530.43</ele>
        <time>2013-05-26T12:26:14Z</time>
      </trkpt>
      <trkpt lat="43.78282" lon="6.78848">
        <ele>1528.08</ele>
        <time>2013-05-26T12:26:38Z</time>
      </trkpt>
      <trkpt lat="43.78274" lon="6.78856">
        <ele>1526.77</ele>
        <time>2013-05-26T12:26:56Z</time>
      </trkpt>
      <trkpt lat="43.78264" lon="6.78857">
        <ele>1525.56</ele>
        <time>2013-05-26T12:27:08Z</time>
      </trkpt>
      <trkpt lat="43.78254" lon="6.78857">
        <ele>1523.42</ele>
        <time>2013-05-26T12:27:23Z</time>
      </trkpt>
      <trkpt lat="43.78244" lon="6.78863">
        <ele>1521.63</ele>
        <time>2013-05-26T12:27:39Z</time>
      </trkpt>
      <trkpt lat="43.78237" lon="6.78873">
        <ele>1519.42</ele>
        <time>2013-05-26T12:27:54Z</time>
      </trkpt>
      <trkpt lat="43.78229" lon="6.78883">
        <ele>1517.49</ele>
        <time>2013-05-26T12:28:06Z</time>
      </trkpt>
      <trkpt lat="43.78225" lon="6.78895">
        <ele>1514.98</ele>
        <time>2013-05-26T12:28:18Z</time>
      </trkpt>
      <trkpt lat="43.78221" lon="6.78908">
        <ele>1512.66</ele>
        <time>2013-05-26T12:28:30Z</time>
      </trkpt>
      <trkpt lat="43.78214" lon="6.78919">
        <ele>1511.72</ele>
        <time>2013-05-26T12:28:39Z</time>
      </trkpt>
      <trkpt lat="43.78207" lon="6.78933">
        <ele>1510.39</ele>
        <time>2013-05-26T12:28:54Z</time>
      </trkpt>
      <trkpt lat="43.78212" lon="6.78945">
        <ele>1508.13</ele>
        <time>2013-05-26T12:29:06Z</time>
      </trkpt>
      <trkpt lat="43.78214" lon="6.78958">
        <ele>1505.19</ele>
        <time>2013-05-26T12:29:18Z</time>
      </trkpt>
      <trkpt lat="43.78222" lon="6.78968">
        <ele>1499.88</ele>
        <time>2013-05-26T12:29:36Z</time>
      </trkpt>
      <trkpt lat="43.78227" lon="6.7898">
        <ele>1496.95</ele>
        <time>2013-05-26T12:29:48Z</time>
      </trkpt>
      <trkpt lat="43.78226" lon="6.78995">
        <ele>1493.44</ele>
        <time>2013-05-26T12:30:12Z</time>
      </trkpt>
      <trkpt lat="43.7823" lon="6.79007">
        <ele>1492.39</ele>
        <time>2013-05-26T12:30:21Z</time>
      </trkpt>
      <trkpt lat="43.78233" lon="6.79021">
        <ele>1491.37</ele>
        <time>2013-05-26T12:30:36Z</time>
      </trkpt>
      <trkpt lat="43.78236" lon="6.79034">
        <ele>1490.55</ele>
        <time>2013-05-26T12:30:48Z</time>
      </trkpt>
      <trkpt lat="43.78243" lon="6.79047">
        <ele>1489.15</ele>
        <time>2013-05-26T12:31:00Z</time>
      </trkpt>
      <trkpt lat="43.78247" lon="6.7906">
        <ele>1487.87</ele>
        <time>2013-05-26T12:31:12Z</time>
      </trkpt>
      <trkpt lat="43.78247" lon="6.79074">
        <ele>1486.94</ele>
        <time>2013-05-26T12:31:27Z</time>
      </trkpt>
      <trkpt lat="43.78266" lon="6.79091">
        <ele>1485.25</ele>
        <time>2013-05-26T12:31:58Z</time>
      </trkpt>
      <trkpt lat="43.78272" lon="6.79101">
        <ele>1486.09</ele>
        <time>2013-05-26T12:32:16Z</time>
      </trkpt>
      <trkpt lat="43.78277" lon="6.79117">
        <ele>1487.55</ele>
        <time>2013-05-26T12:32:31Z</time>
      </trkpt>
      <trkpt lat="43.78285" lon="6.79125">
        <ele>1488.96</ele>
        <time>2013-05-26T12:32:46Z</time>
      </trkpt>
      <trkpt lat="43.78283" lon="6.79139">
        <ele>1489.26</ele>
        <time>2013-05-26T12:32:58Z</time>
      </trkpt>
      <trkpt lat="43.78279" lon="6.79151">
        <ele>1489</ele>
        <time>2013-05-26T12:33:07Z</time>
      </trkpt>
      <trkpt lat="43.78273" lon="6.7916">
        <ele>1487.84</ele>
        <time>2013-05-26T12:33:31Z</time>
      </trkpt>
      <trkpt lat="43.78263" lon="6.7916">
        <ele>1487.6</ele>
        <time>2013-05-26T12:33:52Z</time>
      </trkpt>
      <trkpt lat="43.78253" lon="6.79165">
        <ele>1487.73</ele>
        <time>2013-05-26T12:34:13Z</time>
      </trkpt>
      <trkpt lat="43.78248" lon="6.79177">
        <ele>1484.51</ele>
        <time>2013-05-26T12:35:28Z</time>
      </trkpt>
      <trkpt lat="43.78239" lon="6.79184">
        <ele>1481.61</ele>
        <time>2013-05-26T12:35:55Z</time>
      </trkpt>
      <trkpt lat="43.78234" lon="6.79194">
        <ele>1476.25</ele>
        <time>2013-05-26T12:36:34Z</time>
      </trkpt>
      <trkpt lat="43.78223" lon="6.79192">
        <ele>1473.41</ele>
        <time>2013-05-26T12:36:52Z</time>
      </trkpt>
      <trkpt lat="43.78214" lon="6.79197">
        <ele>1470.21</ele>
        <time>2013-05-26T12:37:13Z</time>
      </trkpt>
      <trkpt lat="43.78211" lon="6.79185">
        <ele>1466.91</ele>
        <time>2013-05-26T12:37:43Z</time>
      </trkpt>
      <trkpt lat="43.78201" lon="6.79183">
        <ele>1465.81</ele>
        <time>2013-05-26T12:37:49Z</time>
      </trkpt>
      <trkpt lat="43.78192" lon="6.7918">
        <ele>1464.29</ele>
        <time>2013-05-26T12:37:58Z</time>
      </trkpt>
      <trkpt lat="43.78181" lon="6.79178">
        <ele>1461.86</ele>
        <time>2013-05-26T12:38:19Z</time>
      </trkpt>
      <trkpt lat="43.78171" lon="6.79173">
        <ele>1460.81</ele>
        <time>2013-05-26T12:38:28Z</time>
      </trkpt>
      <trkpt lat="43.78162" lon="6.79174">
        <ele>1459.53</ele>
        <time>2013-05-26T12:38:40Z</time>
      </trkpt>
      <trkpt lat="43.78151" lon="6.79174">
        <ele>1458.86</ele>
        <time>2013-05-26T12:38:52Z</time>
      </trkpt>
      <trkpt lat="43.78141" lon="6.79169">
        <ele>1458.86</ele>
        <time>2013-05-26T12:39:04Z</time>
      </trkpt>
      <trkpt lat="43.78128" lon="6.79162">
        <ele>1459.21</ele>
        <time>2013-05-26T12:39:24Z</time>
      </trkpt>
      <trkpt lat="43.78123" lon="6.79151">
        <ele>1460.44</ele>
        <time>2013-05-26T12:39:30Z</time>
      </trkpt>
      <trkpt lat="43.78113" lon="6.79154">
        <ele>1463.33</ele>
        <time>2013-05-26T12:39:48Z</time>
      </trkpt>
      <trkpt lat="43.78104" lon="6.79153">
        <ele>1464.57</ele>
        <time>2013-05-26T12:40:07Z</time>
      </trkpt>
      <trkpt lat="43.78097" lon="6.79163">
        <ele>1465.08</ele>
        <time>2013-05-26T12:40:22Z</time>
      </trkpt>
      <trkpt lat="43.7809" lon="6.79174">
        <ele>1465.21</ele>
        <time>2013-05-26T12:40:34Z</time>
      </trkpt>
      <trkpt lat="43.7808" lon="6.79171">
        <ele>1465.42</ele>
        <time>2013-05-26T12:40:46Z</time>
      </trkpt>
      <trkpt lat="43.7809" lon="6.79171">
        <ele>1467.02</ele>
        <time>2013-05-26T12:41:58Z</time>
      </trkpt>
      <trkpt lat="43.78097" lon="6.79163">
        <ele>1467.35</ele>
        <time>2013-05-26T12:42:16Z</time>
      </trkpt>
      <trkpt lat="43.78103" lon="6.79153">
        <ele>1466.74</ele>
        <time>2013-05-26T12:44:14Z</time>
      </trkpt>
      <trkpt lat="43.78096" lon="6.79142">
        <ele>1467.01</ele>
        <time>2013-05-26T12:46:08Z</time>
      </trkpt>
      <trkpt lat="43.78088" lon="6.79131">
        <ele>1467.25</ele>
        <time>2013-05-26T12:46:26Z</time>
      </trkpt>
      <trkpt lat="43.7808" lon="6.79121">
        <ele>1467</ele>
        <time>2013-05-26T12:46:41Z</time>
      </trkpt>
      <trkpt lat="43.78073" lon="6.79112">
        <ele>1466.77</ele>
        <time>2013-05-26T12:46:53Z</time>
      </trkpt>
      <trkpt lat="43.78064" lon="6.79118">
        <ele>1465.89</ele>
        <time>2013-05-26T12:47:08Z</time>
      </trkpt>
      <trkpt lat="43.78055" lon="6.79112">
        <ele>1462.79</ele>
        <time>2013-05-26T12:47:29Z</time>
      </trkpt>
      <trkpt lat="43.78056" lon="6.791">
        <ele>1459.43</ele>
        <time>2013-05-26T12:48:05Z</time>
      </trkpt>
      <trkpt lat="43.7806" lon="6.79087">
        <ele>1455.79</ele>
        <time>2013-05-26T12:48:26Z</time>
      </trkpt>
      <trkpt lat="43.78061" lon="6.79072">
        <ele>1452.71</ele>
        <time>2013-05-26T12:48:41Z</time>
      </trkpt>
      <trkpt lat="43.78065" lon="6.79058">
        <ele>1450.16</ele>
        <time>2013-05-26T12:48:53Z</time>
      </trkpt>
      <trkpt lat="43.78059" lon="6.79047">
        <ele>1447.4</ele>
        <time>2013-05-26T12:49:08Z</time>
      </trkpt>
      <trkpt lat="43.78056" lon="6.79034">
        <ele>1444.51</ele>
        <time>2013-05-26T12:49:23Z</time>
      </trkpt>
      <trkpt lat="43.78047" lon="6.79034">
        <ele>1440.65</ele>
        <time>2013-05-26T12:49:53Z</time>
      </trkpt>
      <trkpt lat="43.78043" lon="6.79023">
        <ele>1434.97</ele>
        <time>2013-05-26T12:50:29Z</time>
      </trkpt>
      <trkpt lat="43.78034" lon="6.79031">
        <ele>1430.86</ele>
        <time>2013-05-26T12:50:59Z</time>
      </trkpt>
      <trkpt lat="43.78026" lon="6.79043">
        <ele>1428.41</ele>
        <time>2013-05-26T12:51:14Z</time>
      </trkpt>
      <trkpt lat="43.78016" lon="6.79042">
        <ele>1426.3</ele>
        <time>2013-05-26T12:51:29Z</time>
      </trkpt>
      <trkpt lat="43.78011" lon="6.79055">
        <ele>1423.94</ele>
        <time>2013-05-26T12:51:53Z</time>
      </trkpt>
      <trkpt lat="43.78004" lon="6.79065">
        <ele>1422.43</ele>
        <time>2013-05-26T12:52:08Z</time>
      </trkpt>
      <trkpt lat="43.77997" lon="6.79055">
        <ele>1413.65</ele>
        <time>2013-05-26T12:53:05Z</time>
      </trkpt>
      <trkpt lat="43.77988" lon="6.79057">
        <ele>1408.6</ele>
        <time>2013-05-26T12:54:02Z</time>
      </trkpt>
      <trkpt lat="43.77992" lon="6.79045">
        <ele>1404.67</ele>
        <time>2013-05-26T12:54:47Z</time>
      </trkpt>
      <trkpt lat="43.77989" lon="6.79032">
        <ele>1400.12</ele>
        <time>2013-05-26T12:55:17Z</time>
      </trkpt>
      <trkpt lat="43.77989" lon="6.79018">
        <ele>1394.3</ele>
        <time>2013-05-26T12:55:53Z</time>
      </trkpt>
      <trkpt lat="43.77989" lon="6.79003">
        <ele>1391.76</ele>
        <time>2013-05-26T12:56:17Z</time>
      </trkpt>
      <trkpt lat="43.77989" lon="6.7899">
        <ele>1387.66</ele>
        <time>2013-05-26T12:57:11Z</time>
      </trkpt>
      <trkpt lat="43.77991" lon="6.78976">
        <ele>1383.77</ele>
        <time>2013-05-26T12:57:47Z</time>
      </trkpt>
      <trkpt lat="43.77987" lon="6.78963">
        <ele>1379.19</ele>
        <time>2013-05-26T12:58:23Z</time>
      </trkpt>
      <trkpt lat="43.77995" lon="6.78956">
        <ele>1376.07</ele>
        <time>2013-05-26T13:00:02Z</time>
      </trkpt>
      <trkpt lat="43.77984" lon="6.78928">
        <ele>1363.28</ele>
        <time>2013-05-26T13:02:10Z</time>
      </trkpt>
      <trkpt lat="43.77974" lon="6.78928">
        <ele>1361.61</ele>
        <time>2013-05-26T13:02:40Z</time>
      </trkpt>
      <trkpt lat="43.77971" lon="6.78917">
        <ele>1358.77</ele>
        <time>2013-05-26T13:03:10Z</time>
      </trkpt>
      <trkpt lat="43.77969" lon="6.78903">
        <ele>1352.3</ele>
        <time>2013-05-26T13:03:43Z</time>
      </trkpt>
      <trkpt lat="43.77963" lon="6.78893">
        <ele>1348.22</ele>
        <time>2013-05-26T13:04:01Z</time>
      </trkpt>
      <trkpt lat="43.77957" lon="6.78904">
        <ele>1340.92</ele>
        <time>2013-05-26T13:05:02Z</time>
      </trkpt>
      <trkpt lat="43.77948" lon="6.78903">
        <ele>1336.4</ele>
        <time>2013-05-26T13:06:44Z</time>
      </trkpt>
      <trkpt lat="43.77945" lon="6.78916">
        <ele>1335.86</ele>
        <time>2013-05-26T13:07:23Z</time>
      </trkpt>
      <trkpt lat="43.77943" lon="6.78929">
        <ele>1335.35</ele>
        <time>2013-05-26T13:07:35Z</time>
      </trkpt>
      <trkpt lat="43.77935" lon="6.78937">
        <ele>1333.16</ele>
        <time>2013-05-26T13:07:56Z</time>
      </trkpt>
      <trkpt lat="43.77932" lon="6.7895">
        <ele>1330.82</ele>
        <time>2013-05-26T13:08:08Z</time>
      </trkpt>
      <trkpt lat="43.77929" lon="6.78964">
        <ele>1328.1</ele>
        <time>2013-05-26T13:08:23Z</time>
      </trkpt>
      <trkpt lat="43.77924" lon="6.78975">
        <ele>1326.04</ele>
        <time>2013-05-26T13:08:35Z</time>
      </trkpt>
      <trkpt lat="43.77917" lon="6.78965">
        <ele>1322.62</ele>
        <time>2013-05-26T13:08:50Z</time>
      </trkpt>
      <trkpt lat="43.77909" lon="6.78956">
        <ele>1320.51</ele>
        <time>2013-05-26T13:08:59Z</time>
      </trkpt>
      <trkpt lat="43.77901" lon="6.78947">
        <ele>1317.04</ele>
        <time>2013-05-26T13:09:17Z</time>
      </trkpt>
      <trkpt lat="43.77891" lon="6.78943">
        <ele>1313.55</ele>
        <time>2013-05-26T13:09:35Z</time>
      </trkpt>
      <trkpt lat="43.77881" lon="6.78939">
        <ele>1306.7</ele>
        <time>2013-05-26T13:11:32Z</time>
      </trkpt>
      <trkpt lat="43.77873" lon="6.78928">
        <ele>1305.37</ele>
        <time>2013-05-26T13:11:44Z</time>
      </trkpt>
      <trkpt lat="43.77871" lon="6.78916">
        <ele>1303.55</ele>
        <time>2013-05-26T13:11:57Z</time>
      </trkpt>
      <trkpt lat="43.77869" lon="6.78902">
        <ele>1298.52</ele>
        <time>2013-05-26T13:12:51Z</time>
      </trkpt>
      <trkpt lat="43.77867" lon="6.78889">
        <ele>1297.44</ele>
        <time>2013-05-26T13:13:03Z</time>
      </trkpt>
      <trkpt lat="43.77865" lon="6.78875">
        <ele>1295.56</ele>
        <time>2013-05-26T13:13:15Z</time>
      </trkpt>
      <trkpt lat="43.77864" lon="6.78861">
        <ele>1294.17</ele>
        <time>2013-05-26T13:13:27Z</time>
      </trkpt>
      <trkpt lat="43.77863" lon="6.78846">
        <ele>1293.19</ele>
        <time>2013-05-26T13:13:36Z</time>
      </trkpt>
      <trkpt lat="43.77859" lon="6.78831">
        <ele>1291.91</ele>
        <time>2013-05-26T13:13:48Z</time>
      </trkpt>
      <trkpt lat="43.77856" lon="6.78818">
        <ele>1291.41</ele>
        <time>2013-05-26T13:13:57Z</time>
      </trkpt>
      <trkpt lat="43.77853" lon="6.78805">
        <ele>1290.65</ele>
        <time>2013-05-26T13:14:09Z</time>
      </trkpt>
      <trkpt lat="43.7785" lon="6.78793">
        <ele>1289.53</ele>
        <time>2013-05-26T13:14:21Z</time>
      </trkpt>
      <trkpt lat="43.77846" lon="6.78779">
        <ele>1288.37</ele>
        <time>2013-05-26T13:14:33Z</time>
      </trkpt>
      <trkpt lat="43.77838" lon="6.78768">
        <ele>1286.7</ele>
        <time>2013-05-26T13:14:45Z</time>
      </trkpt>
      <trkpt lat="43.77831" lon="6.78757">
        <ele>1283.66</ele>
        <time>2013-05-26T13:15:09Z</time>
      </trkpt>
      <trkpt lat="43.77826" lon="6.78746">
        <ele>1283.02</ele>
        <time>2013-05-26T13:15:18Z</time>
      </trkpt>
      <trkpt lat="43.77821" lon="6.78736">
        <ele>1282.15</ele>
        <time>2013-05-26T13:15:27Z</time>
      </trkpt>
      <trkpt lat="43.77815" lon="6.78725">
        <ele>1279.48</ele>
        <time>2013-05-26T13:15:51Z</time>
      </trkpt>
      <trkpt lat="43.77804" lon="6.78724">
        <ele>1277.39</ele>
        <time>2013-05-26T13:16:06Z</time>
      </trkpt>
      <trkpt lat="43.77797" lon="6.78714">
        <ele>1274.08</ele>
        <time>2013-05-26T13:16:30Z</time>
      </trkpt>
      <trkpt lat="43.77788" lon="6.78714">
        <ele>1270.18</ele>
        <time>2013-05-26T13:17:03Z</time>
      </trkpt>
      <trkpt lat="43.77786" lon="6.787">
        <ele>1268.73</ele>
        <time>2013-05-26T13:17:15Z</time>
      </trkpt>
      <trkpt lat="43.7778" lon="6.78687">
        <ele>1267.12</ele>
        <time>2013-05-26T13:17:30Z</time>
      </trkpt>
      <trkpt lat="43.77779" lon="6.78675">
        <ele>1266.73</ele>
        <time>2013-05-26T13:17:39Z</time>
      </trkpt>
      <trkpt lat="43.7778" lon="6.78662">
        <ele>1266.46</ele>
        <time>2013-05-26T13:17:48Z</time>
      </trkpt>
      <trkpt lat="43.77783" lon="6.78646">
        <ele>1266.28</ele>
        <time>2013-05-26T13:18:01Z</time>
      </trkpt>
      <trkpt lat="43.77784" lon="6.78633">
        <ele>1265.81</ele>
        <time>2013-05-26T13:18:10Z</time>
      </trkpt>
      <trkpt lat="43.77778" lon="6.78621">
        <ele>1265.36</ele>
        <time>2013-05-26T13:18:19Z</time>
      </trkpt>
      <trkpt lat="43.77778" lon="6.78607">
        <ele>1265.02</ele>
        <time>2013-05-26T13:18:37Z</time>
      </trkpt>
      <trkpt lat="43.77779" lon="6.7859">
        <ele>1264.63</ele>
        <time>2013-05-26T13:19:01Z</time>
      </trkpt>
      <trkpt lat="43.77774" lon="6.78576">
        <ele>1264.11</ele>
        <time>2013-05-26T13:19:16Z</time>
      </trkpt>
      <trkpt lat="43.77772" lon="6.78561">
        <ele>1263.09</ele>
        <time>2013-05-26T13:19:28Z</time>
      </trkpt>
      <trkpt lat="43.77768" lon="6.78548">
        <ele>1262.27</ele>
        <time>2013-05-26T13:19:40Z</time>
      </trkpt>
      <trkpt lat="43.77761" lon="6.78537">
        <ele>1261.43</ele>
        <time>2013-05-26T13:19:58Z</time>
      </trkpt>
      <trkpt lat="43.77758" lon="6.78525">
        <ele>1260.61</ele>
        <time>2013-05-26T13:20:10Z</time>
      </trkpt>
      <trkpt lat="43.7775" lon="6.78517">
        <ele>1259.85</ele>
        <time>2013-05-26T13:20:22Z</time>
      </trkpt>
      <trkpt lat="43.77744" lon="6.78507">
        <ele>1258.48</ele>
        <time>2013-05-26T13:20:34Z</time>
      </trkpt>
      <trkpt lat="43.77739" lon="6.78496">
        <ele>1256.89</ele>
        <time>2013-05-26T13:20:46Z</time>
      </trkpt>
      <trkpt lat="43.77739" lon="6.7848">
        <ele>1254.88</ele>
        <time>2013-05-26T13:20:58Z</time>
      </trkpt>
      <trkpt lat="43.77735" lon="6.78467">
        <ele>1252.91</ele>
        <time>2013-05-26T13:21:10Z</time>
      </trkpt>
      <trkpt lat="43.77726" lon="6.78465">
        <ele>1250.69</ele>
        <time>2013-05-26T13:21:22Z</time>
      </trkpt>
      <trkpt lat="43.77717" lon="6.78462">
        <ele>1246.6</ele>
        <time>2013-05-26T13:21:40Z</time>
      </trkpt>
      <trkpt lat="43.77708" lon="6.78457">
        <ele>1242.59</ele>
        <time>2013-05-26T13:22:01Z</time>
      </trkpt>
      <trkpt lat="43.77698" lon="6.7846">
        <ele>1240.5</ele>
        <time>2013-05-26T13:22:25Z</time>
      </trkpt>
      <trkpt lat="43.7769" lon="6.78466">
        <ele>1238.94</ele>
        <time>2013-05-26T13:22:49Z</time>
      </trkpt>
      <trkpt lat="43.77681" lon="6.78471">
        <ele>1237.88</ele>
        <time>2013-05-26T13:23:04Z</time>
      </trkpt>
      <trkpt lat="43.77673" lon="6.78482">
        <ele>1236.47</ele>
        <time>2013-05-26T13:23:19Z</time>
      </trkpt>
      <trkpt lat="43.77665" lon="6.7849">
        <ele>1235.03</ele>
        <time>2013-05-26T13:23:37Z</time>
      </trkpt>
      <trkpt lat="43.77656" lon="6.7849">
        <ele>1234.15</ele>
        <time>2013-05-26T13:23:55Z</time>
      </trkpt>
      <trkpt lat="43.77646" lon="6.78493">
        <ele>1231.52</ele>
        <time>2013-05-26T13:24:10Z</time>
      </trkpt>
      <trkpt lat="43.77637" lon="6.7849">
        <ele>1228.96</ele>
        <time>2013-05-26T13:24:23Z</time>
      </trkpt>
      <trkpt lat="43.77625" lon="6.78493">
        <ele>1226.23</ele>
        <time>2013-05-26T13:24:38Z</time>
      </trkpt>
      <trkpt lat="43.77616" lon="6.78492">
        <ele>1224.23</ele>
        <time>2013-05-26T13:24:50Z</time>
      </trkpt>
      <trkpt lat="43.77605" lon="6.78495">
        <ele>1222.14</ele>
        <time>2013-05-26T13:25:02Z</time>
      </trkpt>
      <trkpt lat="43.77595" lon="6.78495">
        <ele>1220.16</ele>
        <time>2013-05-26T13:25:14Z</time>
      </trkpt>
      <trkpt lat="43.77584" lon="6.78501">
        <ele>1218.32</ele>
        <time>2013-05-26T13:25:26Z</time>
      </trkpt>
      <trkpt lat="43.77575" lon="6.78502">
        <ele>1216.58</ele>
        <time>2013-05-26T13:25:38Z</time>
      </trkpt>
      <trkpt lat="43.77564" lon="6.78501">
        <ele>1214.61</ele>
        <time>2013-05-26T13:25:53Z</time>
      </trkpt>
      <trkpt lat="43.77555" lon="6.78498">
        <ele>1212.78</ele>
        <time>2013-05-26T13:26:05Z</time>
      </trkpt>
      <trkpt lat="43.77542" lon="6.78499">
        <ele>1210.87</ele>
        <time>2013-05-26T13:26:17Z</time>
      </trkpt>
      <trkpt lat="43.77532" lon="6.78494">
        <ele>1209.79</ele>
        <time>2013-05-26T13:26:26Z</time>
      </trkpt>
      <trkpt lat="43.77522" lon="6.78492">
        <ele>1208.62</ele>
        <time>2013-05-26T13:26:38Z</time>
      </trkpt>
      <trkpt lat="43.77512" lon="6.78496">
        <ele>1208.11</ele>
        <time>2013-05-26T13:26:53Z</time>
      </trkpt>
      <trkpt lat="43.77501" lon="6.78497">
        <ele>1207.76</ele>
        <time>2013-05-26T13:27:02Z</time>
      </trkpt>
      <trkpt lat="43.77491" lon="6.78498">
        <ele>1206.86</ele>
        <time>2013-05-26T13:27:11Z</time>
      </trkpt>
      <trkpt lat="43.77482" lon="6.78497">
        <ele>1205.31</ele>
        <time>2013-05-26T13:27:20Z</time>
      </trkpt>
      <trkpt lat="43.77472" lon="6.78498">
        <ele>1203.5</ele>
        <time>2013-05-26T13:27:32Z</time>
      </trkpt>
      <trkpt lat="43.7746" lon="6.78497">
        <ele>1200.87</ele>
        <time>2013-05-26T13:27:50Z</time>
      </trkpt>
      <trkpt lat="43.77449" lon="6.78499">
        <ele>1199.46</ele>
        <time>2013-05-26T13:28:02Z</time>
      </trkpt>
      <trkpt lat="43.77439" lon="6.78501">
        <ele>1198.26</ele>
        <time>2013-05-26T13:28:17Z</time>
      </trkpt>
      <trkpt lat="43.77427" lon="6.78502">
        <ele>1197.52</ele>
        <time>2013-05-26T13:28:26Z</time>
      </trkpt>
      <trkpt lat="43.77418" lon="6.78504">
        <ele>1196.87</ele>
        <time>2013-05-26T13:28:35Z</time>
      </trkpt>
      <trkpt lat="43.77409" lon="6.78504">
        <ele>1196.2</ele>
        <time>2013-05-26T13:28:44Z</time>
      </trkpt>
      <trkpt lat="43.77398" lon="6.78507">
        <ele>1195.23</ele>
        <time>2013-05-26T13:28:56Z</time>
      </trkpt>
      <trkpt lat="43.77389" lon="6.78515">
        <ele>1195.21</ele>
        <time>2013-05-26T13:29:08Z</time>
      </trkpt>
      <trkpt lat="43.77382" lon="6.78524">
        <ele>1195.26</ele>
        <time>2013-05-26T13:29:20Z</time>
      </trkpt>
      <trkpt lat="43.77384" lon="6.78538">
        <ele>1195.24</ele>
        <time>2013-05-26T13:29:50Z</time>
      </trkpt>
      <trkpt lat="43.77382" lon="6.78553">
        <ele>1195.28</ele>
        <time>2013-05-26T13:29:59Z</time>
      </trkpt>
      <trkpt lat="43.77387" lon="6.78563">
        <ele>1195.86</ele>
        <time>2013-05-26T13:30:20Z</time>
      </trkpt>
      <trkpt lat="43.77381" lon="6.78553">
        <ele>1195.98</ele>
        <time>2013-05-26T13:30:50Z</time>
      </trkpt>
      <trkpt lat="43.77372" lon="6.78558">
        <ele>1195.08</ele>
        <time>2013-05-26T13:31:20Z</time>
      </trkpt>
      <trkpt lat="43.77374" lon="6.7857">
        <ele>1194.6</ele>
        <time>2013-05-26T13:31:26Z</time>
      </trkpt>
      <trkpt lat="43.77376" lon="6.78583">
        <ele>1194.01</ele>
        <time>2013-05-26T13:31:35Z</time>
      </trkpt>
      <trkpt lat="43.77376" lon="6.78597">
        <ele>1193.18</ele>
        <time>2013-05-26T13:31:53Z</time>
      </trkpt>
      <trkpt lat="43.77373" lon="6.78638">
        <ele>1190.94</ele>
        <time>2013-05-26T13:32:26Z</time>
      </trkpt>
      <trkpt lat="43.77373" lon="6.78653">
        <ele>1190.77</ele>
        <time>2013-05-26T13:32:35Z</time>
      </trkpt>
      <trkpt lat="43.77373" lon="6.78667">
        <ele>1190.52</ele>
        <time>2013-05-26T13:32:47Z</time>
      </trkpt>
      <trkpt lat="43.77378" lon="6.78678">
        <ele>1189.88</ele>
        <time>2013-05-26T13:33:02Z</time>
      </trkpt>
      <trkpt lat="43.77387" lon="6.78686">
        <ele>1188.29</ele>
        <time>2013-05-26T13:33:11Z</time>
      </trkpt>
      <trkpt lat="43.77393" lon="6.78698">
        <ele>1186.18</ele>
        <time>2013-05-26T13:33:21Z</time>
      </trkpt>
      <trkpt lat="43.77398" lon="6.7871">
        <ele>1184.1</ele>
        <time>2013-05-26T13:33:33Z</time>
      </trkpt>
      <trkpt lat="43.77394" lon="6.78723">
        <ele>1184.65</ele>
        <time>2013-05-26T13:34:21Z</time>
      </trkpt>
    </trkseg>
  </trk>
</gpx>